<?xml version="1.0" encoding="UTF-8" standalone="no" ?>
<gpx xmlns="http://www.topografix.com/GPX/1/1" xmlns:xsi="http://www.w3.org/2001/XMLSchema-instance" xsi:schemaLocation="http://www.topografix.com/GPX/1/1 http://www.topografix.com/GPX/1/1/gpx.xsd" version="1.1" creator="VisuGPX - https://www.visugpx.com">
  <metadata>
    <name>Tour de la Madeleine</name>
  </metadata>
  <wpt lat="45.25794" lon="4.09893">
    <ele>558.9</ele>
    <name><![CDATA[Départ / arrivée]]></name>
  </wpt>
  <trk>
    <name><![CDATA[20190301091325-vnPbD]]></name>
    <trkseg>
      <trkpt lat="45.25811" lon="4.0991">
        <ele>558.3</ele>
        <time>2019-02-28T10:48:44Z</time>
      </trkpt>
      <trkpt lat="45.25816" lon="4.09906">
        <ele>558</ele>
        <time>2019-02-28T10:48:57Z</time>
      </trkpt>
      <trkpt lat="45.25816" lon="4.09908">
        <ele>558.2</ele>
        <time>2019-02-28T10:49:08Z</time>
      </trkpt>
      <trkpt lat="45.25817" lon="4.09918">
        <ele>558.7</ele>
        <time>2019-02-28T10:49:09Z</time>
      </trkpt>
      <trkpt lat="45.25817" lon="4.09932">
        <ele>559.1</ele>
        <time>2019-02-28T10:49:14Z</time>
      </trkpt>
      <trkpt lat="45.25828" lon="4.09933">
        <ele>558.7</ele>
        <time>2019-02-28T10:49:25Z</time>
      </trkpt>
      <trkpt lat="45.25866" lon="4.09935">
        <ele>556.4</ele>
        <time>2019-02-28T10:49:32Z</time>
      </trkpt>
      <trkpt lat="45.25876" lon="4.09936">
        <ele>556.3</ele>
        <time>2019-02-28T10:49:38Z</time>
      </trkpt>
      <trkpt lat="45.25906" lon="4.09936">
        <ele>556</ele>
        <time>2019-02-28T10:49:47Z</time>
      </trkpt>
      <trkpt lat="45.25922" lon="4.09937">
        <ele>554.6</ele>
        <time>2019-02-28T10:49:55Z</time>
      </trkpt>
      <trkpt lat="45.25928" lon="4.09939">
        <ele>554.4</ele>
        <time>2019-02-28T10:50:01Z</time>
      </trkpt>
      <trkpt lat="45.25933" lon="4.09943">
        <ele>554.2</ele>
        <time>2019-02-28T14:14:01Z</time>
      </trkpt>
      <trkpt lat="45.25934" lon="4.09936">
        <ele>554.4</ele>
        <time>2019-02-28T14:14:13Z</time>
      </trkpt>
      <trkpt lat="45.25934" lon="4.09936">
        <ele>554.4</ele>
        <time>2019-02-28T14:14:25Z</time>
      </trkpt>
      <trkpt lat="45.25941" lon="4.09906">
        <ele>555.5</ele>
        <time>2019-02-28T14:14:35Z</time>
      </trkpt>
      <trkpt lat="45.25942" lon="4.09901">
        <ele>555.5</ele>
        <time>2019-02-28T14:14:45Z</time>
      </trkpt>
      <trkpt lat="45.25942" lon="4.09898">
        <ele>555.4</ele>
        <time>2019-02-28T14:14:56Z</time>
      </trkpt>
      <trkpt lat="45.25937" lon="4.09895">
        <ele>555.5</ele>
        <time>2019-02-28T14:15:07Z</time>
      </trkpt>
      <trkpt lat="45.25936" lon="4.09891">
        <ele>555.5</ele>
        <time>2019-02-28T14:15:22Z</time>
      </trkpt>
      <trkpt lat="45.25936" lon="4.09878">
        <ele>555.5</ele>
        <time>2019-02-28T14:15:24Z</time>
      </trkpt>
      <trkpt lat="45.25935" lon="4.0987">
        <ele>555.6</ele>
        <time>2019-02-28T14:15:30Z</time>
      </trkpt>
      <trkpt lat="45.25935" lon="4.09861">
        <ele>555.7</ele>
        <time>2019-02-28T14:15:39Z</time>
      </trkpt>
      <trkpt lat="45.25934" lon="4.09855">
        <ele>555.8</ele>
        <time>2019-02-28T14:15:49Z</time>
      </trkpt>
      <trkpt lat="45.25932" lon="4.09847">
        <ele>556</ele>
        <time>2019-02-28T14:15:57Z</time>
      </trkpt>
      <trkpt lat="45.25929" lon="4.09841">
        <ele>556.2</ele>
        <time>2019-02-28T14:16:07Z</time>
      </trkpt>
      <trkpt lat="45.25931" lon="4.09832">
        <ele>556.5</ele>
        <time>2019-02-28T14:16:17Z</time>
      </trkpt>
      <trkpt lat="45.25931" lon="4.09823">
        <ele>556.5</ele>
        <time>2019-02-28T14:16:27Z</time>
      </trkpt>
      <trkpt lat="45.25931" lon="4.0982">
        <ele>556.4</ele>
        <time>2019-02-28T14:16:35Z</time>
      </trkpt>
      <trkpt lat="45.25929" lon="4.09809">
        <ele>556.4</ele>
        <time>2019-02-28T14:16:43Z</time>
      </trkpt>
      <trkpt lat="45.25925" lon="4.09797">
        <ele>556.5</ele>
        <time>2019-02-28T14:16:53Z</time>
      </trkpt>
      <trkpt lat="45.25924" lon="4.09786">
        <ele>556.6</ele>
        <time>2019-02-28T14:17:05Z</time>
      </trkpt>
      <trkpt lat="45.25924" lon="4.09773">
        <ele>556.8</ele>
        <time>2019-02-28T14:17:10Z</time>
      </trkpt>
      <trkpt lat="45.25926" lon="4.09756">
        <ele>557.3</ele>
        <time>2019-02-28T14:17:27Z</time>
      </trkpt>
      <trkpt lat="45.25931" lon="4.09731">
        <ele>557.7</ele>
        <time>2019-02-28T14:17:43Z</time>
      </trkpt>
      <trkpt lat="45.25932" lon="4.09723">
        <ele>557.8</ele>
        <time>2019-02-28T14:17:48Z</time>
      </trkpt>
      <trkpt lat="45.25937" lon="4.097">
        <ele>557.9</ele>
        <time>2019-02-28T14:18:05Z</time>
      </trkpt>
      <trkpt lat="45.25938" lon="4.09694">
        <ele>557.9</ele>
        <time>2019-02-28T14:18:21Z</time>
      </trkpt>
      <trkpt lat="45.25942" lon="4.09678">
        <ele>558</ele>
        <time>2019-02-28T14:18:29Z</time>
      </trkpt>
      <trkpt lat="45.25946" lon="4.09668">
        <ele>558.1</ele>
        <time>2019-02-28T14:18:41Z</time>
      </trkpt>
      <trkpt lat="45.25953" lon="4.09649">
        <ele>558.7</ele>
        <time>2019-02-28T14:18:48Z</time>
      </trkpt>
      <trkpt lat="45.25959" lon="4.09636">
        <ele>558.8</ele>
        <time>2019-02-28T14:18:50Z</time>
      </trkpt>
      <trkpt lat="45.25965" lon="4.09628">
        <ele>558.9</ele>
        <time>2019-02-28T14:19:01Z</time>
      </trkpt>
      <trkpt lat="45.2597" lon="4.09623">
        <ele>559</ele>
        <time>2019-02-28T14:19:09Z</time>
      </trkpt>
      <trkpt lat="45.25974" lon="4.09622">
        <ele>559.1</ele>
        <time>2019-02-28T14:19:20Z</time>
      </trkpt>
      <trkpt lat="45.25978" lon="4.09621">
        <ele>559.2</ele>
        <time>2019-02-28T14:19:29Z</time>
      </trkpt>
      <trkpt lat="45.25979" lon="4.09617">
        <ele>559.2</ele>
        <time>2019-02-28T14:19:30Z</time>
      </trkpt>
      <trkpt lat="45.25982" lon="4.09611">
        <ele>559.3</ele>
        <time>2019-02-28T14:19:34Z</time>
      </trkpt>
      <trkpt lat="45.25987" lon="4.09599">
        <ele>559.7</ele>
        <time>2019-02-28T14:19:50Z</time>
      </trkpt>
      <trkpt lat="45.2599" lon="4.09594">
        <ele>560</ele>
        <time>2019-02-28T14:20:06Z</time>
      </trkpt>
      <trkpt lat="45.25991" lon="4.09592">
        <ele>560.1</ele>
        <time>2019-02-28T14:20:12Z</time>
      </trkpt>
      <trkpt lat="45.26" lon="4.09575">
        <ele>560.6</ele>
        <time>2019-02-28T14:20:30Z</time>
      </trkpt>
      <trkpt lat="45.26019" lon="4.09539">
        <ele>564.6</ele>
        <time>2019-02-28T14:20:48Z</time>
      </trkpt>
      <trkpt lat="45.26035" lon="4.09509">
        <ele>565.5</ele>
        <time>2019-02-28T14:21:04Z</time>
      </trkpt>
      <trkpt lat="45.26053" lon="4.09479">
        <ele>569.3</ele>
        <time>2019-02-28T14:21:22Z</time>
      </trkpt>
      <trkpt lat="45.26065" lon="4.09456">
        <ele>569.9</ele>
        <time>2019-02-28T14:21:39Z</time>
      </trkpt>
      <trkpt lat="45.26073" lon="4.09439">
        <ele>570.5</ele>
        <time>2019-02-28T14:21:40Z</time>
      </trkpt>
      <trkpt lat="45.26077" lon="4.09426">
        <ele>571.2</ele>
        <time>2019-02-28T14:21:51Z</time>
      </trkpt>
      <trkpt lat="45.26078" lon="4.09422">
        <ele>571.4</ele>
        <time>2019-02-28T14:22:06Z</time>
      </trkpt>
      <trkpt lat="45.2608" lon="4.09412">
        <ele>572.6</ele>
        <time>2019-02-28T14:22:19Z</time>
      </trkpt>
      <trkpt lat="45.26084" lon="4.09383">
        <ele>573.1</ele>
        <time>2019-02-28T14:22:35Z</time>
      </trkpt>
      <trkpt lat="45.26087" lon="4.09348">
        <ele>574.7</ele>
        <time>2019-02-28T14:22:47Z</time>
      </trkpt>
      <trkpt lat="45.26087" lon="4.09344">
        <ele>574.9</ele>
        <time>2019-02-28T14:23:02Z</time>
      </trkpt>
      <trkpt lat="45.26087" lon="4.09339">
        <ele>575.3</ele>
        <time>2019-02-28T14:23:18Z</time>
      </trkpt>
      <trkpt lat="45.2609" lon="4.09338">
        <ele>575.2</ele>
        <time>2019-02-28T14:23:32Z</time>
      </trkpt>
      <trkpt lat="45.2616" lon="4.09325">
        <ele>574.9</ele>
        <time>2019-02-28T14:23:41Z</time>
      </trkpt>
      <trkpt lat="45.26164" lon="4.09324">
        <ele>574.8</ele>
        <time>2019-02-28T14:23:56Z</time>
      </trkpt>
      <trkpt lat="45.26177" lon="4.09324">
        <ele>574.3</ele>
        <time>2019-02-28T14:24:11Z</time>
      </trkpt>
      <trkpt lat="45.26189" lon="4.09325">
        <ele>574.3</ele>
        <time>2019-02-28T14:24:26Z</time>
      </trkpt>
      <trkpt lat="45.26206" lon="4.09332">
        <ele>574</ele>
        <time>2019-02-28T14:24:39Z</time>
      </trkpt>
      <trkpt lat="45.26215" lon="4.09338">
        <ele>571.2</ele>
        <time>2019-02-28T14:24:45Z</time>
      </trkpt>
      <trkpt lat="45.26217" lon="4.0934">
        <ele>571.2</ele>
        <time>2019-02-28T14:25:01Z</time>
      </trkpt>
      <trkpt lat="45.26227" lon="4.09351">
        <ele>570.9</ele>
        <time>2019-02-28T14:25:15Z</time>
      </trkpt>
      <trkpt lat="45.26232" lon="4.09342">
        <ele>571</ele>
        <time>2019-02-28T14:25:31Z</time>
      </trkpt>
      <trkpt lat="45.26242" lon="4.09329">
        <ele>572.2</ele>
        <time>2019-02-28T14:25:45Z</time>
      </trkpt>
      <trkpt lat="45.26261" lon="4.093">
        <ele>573.2</ele>
        <time>2019-02-28T14:26:01Z</time>
      </trkpt>
      <trkpt lat="45.26277" lon="4.09274">
        <ele>574</ele>
        <time>2019-02-28T14:26:16Z</time>
      </trkpt>
      <trkpt lat="45.26285" lon="4.09259">
        <ele>574.1</ele>
        <time>2019-02-28T14:26:31Z</time>
      </trkpt>
      <trkpt lat="45.26293" lon="4.09239">
        <ele>576.5</ele>
        <time>2019-02-28T14:26:33Z</time>
      </trkpt>
      <trkpt lat="45.26302" lon="4.09221">
        <ele>576.7</ele>
        <time>2019-02-28T14:26:50Z</time>
      </trkpt>
      <trkpt lat="45.26309" lon="4.09207">
        <ele>577</ele>
        <time>2019-02-28T14:27:05Z</time>
      </trkpt>
      <trkpt lat="45.26318" lon="4.09185">
        <ele>577.5</ele>
        <time>2019-02-28T14:27:20Z</time>
      </trkpt>
      <trkpt lat="45.26323" lon="4.09161">
        <ele>579.2</ele>
        <time>2019-02-28T14:27:36Z</time>
      </trkpt>
      <trkpt lat="45.26329" lon="4.09102">
        <ele>581.3</ele>
        <time>2019-02-28T14:27:51Z</time>
      </trkpt>
      <trkpt lat="45.26337" lon="4.09044">
        <ele>584.4</ele>
        <time>2019-02-28T14:28:10Z</time>
      </trkpt>
      <trkpt lat="45.2635" lon="4.0895">
        <ele>588.8</ele>
        <time>2019-02-28T14:28:21Z</time>
      </trkpt>
      <trkpt lat="45.26351" lon="4.0893">
        <ele>588.9</ele>
        <time>2019-02-28T14:28:39Z</time>
      </trkpt>
      <trkpt lat="45.2635" lon="4.08913">
        <ele>591.2</ele>
        <time>2019-02-28T14:28:47Z</time>
      </trkpt>
      <trkpt lat="45.26383" lon="4.08863">
        <ele>595.3</ele>
        <time>2019-02-28T14:29:00Z</time>
      </trkpt>
      <trkpt lat="45.26412" lon="4.08821">
        <ele>600.5</ele>
        <time>2019-02-28T14:29:06Z</time>
      </trkpt>
      <trkpt lat="45.26536" lon="4.0858">
        <ele>618.4</ele>
        <time>2019-02-28T14:29:21Z</time>
      </trkpt>
      <trkpt lat="45.26565" lon="4.08533">
        <ele>620.9</ele>
        <time>2019-02-28T14:42:43Z</time>
      </trkpt>
      <trkpt lat="45.26591" lon="4.08505">
        <ele>625.6</ele>
        <time>2019-02-28T14:42:53Z</time>
      </trkpt>
      <trkpt lat="45.26631" lon="4.08453">
        <ele>630.1</ele>
        <time>2019-02-28T14:42:59Z</time>
      </trkpt>
      <trkpt lat="45.26664" lon="4.08434">
        <ele>632.3</ele>
        <time>2019-02-28T14:43:10Z</time>
      </trkpt>
      <trkpt lat="45.26694" lon="4.08426">
        <ele>633.5</ele>
        <time>2019-02-28T14:43:19Z</time>
      </trkpt>
      <trkpt lat="45.26716" lon="4.08426">
        <ele>633.7</ele>
        <time>2019-02-28T14:43:27Z</time>
      </trkpt>
      <trkpt lat="45.2673" lon="4.08426">
        <ele>634.3</ele>
        <time>2019-02-28T14:43:37Z</time>
      </trkpt>
      <trkpt lat="45.26749" lon="4.0842">
        <ele>636.4</ele>
        <time>2019-02-28T14:43:47Z</time>
      </trkpt>
      <trkpt lat="45.2677" lon="4.08405">
        <ele>637.5</ele>
        <time>2019-02-28T14:43:56Z</time>
      </trkpt>
      <trkpt lat="45.26781" lon="4.08385">
        <ele>637.9</ele>
        <time>2019-02-28T14:44:07Z</time>
      </trkpt>
      <trkpt lat="45.26792" lon="4.08352">
        <ele>638.8</ele>
        <time>2019-02-28T14:44:17Z</time>
      </trkpt>
      <trkpt lat="45.26795" lon="4.08328">
        <ele>640.8</ele>
        <time>2019-02-28T14:44:26Z</time>
      </trkpt>
      <trkpt lat="45.26795" lon="4.08277">
        <ele>640.9</ele>
        <time>2019-02-28T14:44:35Z</time>
      </trkpt>
      <trkpt lat="45.26784" lon="4.08236">
        <ele>640.7</ele>
        <time>2019-02-28T14:44:46Z</time>
      </trkpt>
      <trkpt lat="45.26788" lon="4.08224">
        <ele>640.3</ele>
        <time>2019-02-28T14:44:57Z</time>
      </trkpt>
      <trkpt lat="45.26788" lon="4.08204">
        <ele>640.1</ele>
        <time>2019-02-28T14:45:07Z</time>
      </trkpt>
      <trkpt lat="45.26782" lon="4.08162">
        <ele>640.5</ele>
        <time>2019-02-28T14:45:16Z</time>
      </trkpt>
      <trkpt lat="45.26784" lon="4.08126">
        <ele>640.8</ele>
        <time>2019-02-28T14:45:20Z</time>
      </trkpt>
      <trkpt lat="45.2679" lon="4.08113">
        <ele>641</ele>
        <time>2019-02-28T14:45:24Z</time>
      </trkpt>
      <trkpt lat="45.26789" lon="4.08112">
        <ele>641</ele>
        <time>2019-02-28T14:45:35Z</time>
      </trkpt>
      <trkpt lat="45.26794" lon="4.08099">
        <ele>641.2</ele>
        <time>2019-02-28T14:45:43Z</time>
      </trkpt>
      <trkpt lat="45.26805" lon="4.08069">
        <ele>644.6</ele>
        <time>2019-02-28T14:45:52Z</time>
      </trkpt>
      <trkpt lat="45.26808" lon="4.08056">
        <ele>645.1</ele>
        <time>2019-02-28T14:46:02Z</time>
      </trkpt>
      <trkpt lat="45.26811" lon="4.08038">
        <ele>645.9</ele>
        <time>2019-02-28T14:46:11Z</time>
      </trkpt>
      <trkpt lat="45.26814" lon="4.08021">
        <ele>646.8</ele>
        <time>2019-02-28T14:46:21Z</time>
      </trkpt>
      <trkpt lat="45.26817" lon="4.08008">
        <ele>647.7</ele>
        <time>2019-02-28T14:46:31Z</time>
      </trkpt>
      <trkpt lat="45.26821" lon="4.08002">
        <ele>648.2</ele>
        <time>2019-02-28T14:46:48Z</time>
      </trkpt>
      <trkpt lat="45.26826" lon="4.07997">
        <ele>650.1</ele>
        <time>2019-02-28T14:47:03Z</time>
      </trkpt>
      <trkpt lat="45.26834" lon="4.0799">
        <ele>649.8</ele>
        <time>2019-02-28T14:47:13Z</time>
      </trkpt>
      <trkpt lat="45.26849" lon="4.07972">
        <ele>649.7</ele>
        <time>2019-02-28T14:47:25Z</time>
      </trkpt>
      <trkpt lat="45.26866" lon="4.07948">
        <ele>649.8</ele>
        <time>2019-02-28T14:47:30Z</time>
      </trkpt>
      <trkpt lat="45.26879" lon="4.07935">
        <ele>649.4</ele>
        <time>2019-02-28T14:47:41Z</time>
      </trkpt>
      <trkpt lat="45.26893" lon="4.07918">
        <ele>648.7</ele>
        <time>2019-02-28T14:47:52Z</time>
      </trkpt>
      <trkpt lat="45.26919" lon="4.07881">
        <ele>646.9</ele>
        <time>2019-02-28T14:48:03Z</time>
      </trkpt>
      <trkpt lat="45.26934" lon="4.07854">
        <ele>647.7</ele>
        <time>2019-02-28T14:48:13Z</time>
      </trkpt>
      <trkpt lat="45.26943" lon="4.07834">
        <ele>647.8</ele>
        <time>2019-02-28T14:48:18Z</time>
      </trkpt>
      <trkpt lat="45.26958" lon="4.07798">
        <ele>646.9</ele>
        <time>2019-02-28T14:48:30Z</time>
      </trkpt>
      <trkpt lat="45.26969" lon="4.07775">
        <ele>645.9</ele>
        <time>2019-02-28T14:48:40Z</time>
      </trkpt>
      <trkpt lat="45.26978" lon="4.07764">
        <ele>644.9</ele>
        <time>2019-02-28T14:48:50Z</time>
      </trkpt>
      <trkpt lat="45.2699" lon="4.07755">
        <ele>643.1</ele>
        <time>2019-02-28T14:49:00Z</time>
      </trkpt>
      <trkpt lat="45.26997" lon="4.07748">
        <ele>641.2</ele>
        <time>2019-02-28T14:49:13Z</time>
      </trkpt>
      <trkpt lat="45.27004" lon="4.07738">
        <ele>638.2</ele>
        <time>2019-02-28T14:49:23Z</time>
      </trkpt>
      <trkpt lat="45.27013" lon="4.07719">
        <ele>635.8</ele>
        <time>2019-02-28T14:49:33Z</time>
      </trkpt>
      <trkpt lat="45.27023" lon="4.07701">
        <ele>634.4</ele>
        <time>2019-02-28T14:49:36Z</time>
      </trkpt>
      <trkpt lat="45.27035" lon="4.07687">
        <ele>633.3</ele>
        <time>2019-02-28T14:49:46Z</time>
      </trkpt>
      <trkpt lat="45.27049" lon="4.07674">
        <ele>631.8</ele>
        <time>2019-02-28T14:49:56Z</time>
      </trkpt>
      <trkpt lat="45.27071" lon="4.07661">
        <ele>625.8</ele>
        <time>2019-02-28T14:50:07Z</time>
      </trkpt>
      <trkpt lat="45.27094" lon="4.0765">
        <ele>621.2</ele>
        <time>2019-02-28T14:50:16Z</time>
      </trkpt>
      <trkpt lat="45.27122" lon="4.07634">
        <ele>618.8</ele>
        <time>2019-02-28T14:50:26Z</time>
      </trkpt>
      <trkpt lat="45.27134" lon="4.07624">
        <ele>618.3</ele>
        <time>2019-02-28T14:50:38Z</time>
      </trkpt>
      <trkpt lat="45.27149" lon="4.07608">
        <ele>617.8</ele>
        <time>2019-02-28T14:50:52Z</time>
      </trkpt>
      <trkpt lat="45.27162" lon="4.07593">
        <ele>617.4</ele>
        <time>2019-02-28T14:51:01Z</time>
      </trkpt>
      <trkpt lat="45.27168" lon="4.07583">
        <ele>616.9</ele>
        <time>2019-02-28T14:51:04Z</time>
      </trkpt>
      <trkpt lat="45.27175" lon="4.07568">
        <ele>616.2</ele>
        <time>2019-02-28T14:51:11Z</time>
      </trkpt>
      <trkpt lat="45.27179" lon="4.07553">
        <ele>615.3</ele>
        <time>2019-02-28T15:07:51Z</time>
      </trkpt>
      <trkpt lat="45.27182" lon="4.07546">
        <ele>614.8</ele>
        <time>2019-02-28T15:08:00Z</time>
      </trkpt>
      <trkpt lat="45.27189" lon="4.07532">
        <ele>614</ele>
        <time>2019-02-28T15:08:10Z</time>
      </trkpt>
      <trkpt lat="45.27203" lon="4.07501">
        <ele>613.5</ele>
        <time>2019-02-28T15:08:19Z</time>
      </trkpt>
      <trkpt lat="45.27211" lon="4.07478">
        <ele>603.3</ele>
        <time>2019-02-28T15:08:30Z</time>
      </trkpt>
      <trkpt lat="45.27217" lon="4.07461">
        <ele>601.5</ele>
        <time>2019-02-28T15:08:37Z</time>
      </trkpt>
      <trkpt lat="45.27224" lon="4.07452">
        <ele>600.6</ele>
        <time>2019-02-28T15:08:40Z</time>
      </trkpt>
      <trkpt lat="45.27231" lon="4.07444">
        <ele>599.7</ele>
        <time>2019-02-28T15:08:43Z</time>
      </trkpt>
      <trkpt lat="45.27239" lon="4.07442">
        <ele>599.4</ele>
        <time>2019-02-28T15:08:45Z</time>
      </trkpt>
      <trkpt lat="45.27267" lon="4.0744">
        <ele>604.1</ele>
        <time>2019-02-28T15:08:49Z</time>
      </trkpt>
      <trkpt lat="45.27281" lon="4.07444">
        <ele>605.7</ele>
        <time>2019-02-28T15:08:55Z</time>
      </trkpt>
      <trkpt lat="45.27296" lon="4.07452">
        <ele>607.3</ele>
        <time>2019-02-28T15:09:06Z</time>
      </trkpt>
      <trkpt lat="45.27301" lon="4.07454">
        <ele>607.6</ele>
        <time>2019-02-28T15:09:17Z</time>
      </trkpt>
      <trkpt lat="45.27305" lon="4.07452">
        <ele>607.4</ele>
        <time>2019-02-28T15:09:26Z</time>
      </trkpt>
      <trkpt lat="45.2731" lon="4.07446">
        <ele>606.6</ele>
      </trkpt>
      <trkpt lat="45.27323" lon="4.0742">
        <ele>602.7</ele>
      </trkpt>
      <trkpt lat="45.27339" lon="4.07388">
        <ele>588.1</ele>
      </trkpt>
      <trkpt lat="45.27356" lon="4.07366">
        <ele>582.7</ele>
      </trkpt>
      <trkpt lat="45.27364" lon="4.07361">
        <ele>582.1</ele>
      </trkpt>
      <trkpt lat="45.2737" lon="4.0736">
        <ele>582.4</ele>
      </trkpt>
      <trkpt lat="45.2738" lon="4.0736">
        <ele>582.6</ele>
      </trkpt>
      <trkpt lat="45.27386" lon="4.07357">
        <ele>582.3</ele>
      </trkpt>
      <trkpt lat="45.27392" lon="4.0735">
        <ele>581.4</ele>
      </trkpt>
      <trkpt lat="45.27397" lon="4.07345">
        <ele>580.6</ele>
      </trkpt>
      <trkpt lat="45.27402" lon="4.07343">
        <ele>580</ele>
      </trkpt>
      <trkpt lat="45.27412" lon="4.07333">
        <ele>577.5</ele>
      </trkpt>
      <trkpt lat="45.27427" lon="4.07318">
        <ele>563.4</ele>
      </trkpt>
      <trkpt lat="45.2744" lon="4.07298">
        <ele>555.9</ele>
      </trkpt>
      <trkpt lat="45.27445" lon="4.07288">
        <ele>553.8</ele>
      </trkpt>
      <trkpt lat="45.27445" lon="4.07285">
        <ele>553.3</ele>
      </trkpt>
      <trkpt lat="45.27441" lon="4.07284">
        <ele>553.4</ele>
      </trkpt>
      <trkpt lat="45.27429" lon="4.07289">
        <ele>554.9</ele>
      </trkpt>
      <trkpt lat="45.27404" lon="4.07302">
        <ele>559</ele>
      </trkpt>
      <trkpt lat="45.2739" lon="4.07311">
        <ele>559.6</ele>
      </trkpt>
      <trkpt lat="45.27385" lon="4.07314">
        <ele>559.4</ele>
      </trkpt>
      <trkpt lat="45.27383" lon="4.07312">
        <ele>559</ele>
      </trkpt>
      <trkpt lat="45.27384" lon="4.07309">
        <ele>558.4</ele>
      </trkpt>
      <trkpt lat="45.27387" lon="4.07303">
        <ele>557.4</ele>
      </trkpt>
      <trkpt lat="45.27402" lon="4.07286">
        <ele>554.5</ele>
      </trkpt>
      <trkpt lat="45.27409" lon="4.07279">
        <ele>552.8</ele>
      </trkpt>
      <trkpt lat="45.27417" lon="4.07266">
        <ele>549.8</ele>
      </trkpt>
      <trkpt lat="45.27425" lon="4.07251">
        <ele>547.5</ele>
      </trkpt>
      <trkpt lat="45.27437" lon="4.0723">
        <ele>534.5</ele>
      </trkpt>
      <trkpt lat="45.27447" lon="4.07217">
        <ele>531.7</ele>
      </trkpt>
      <trkpt lat="45.27455" lon="4.07208">
        <ele>530.5</ele>
      </trkpt>
      <trkpt lat="45.27461" lon="4.07202">
        <ele>530</ele>
      </trkpt>
      <trkpt lat="45.27476" lon="4.07186">
        <ele>529</ele>
      </trkpt>
      <trkpt lat="45.27488" lon="4.0717">
        <ele>528.4</ele>
      </trkpt>
      <trkpt lat="45.27497" lon="4.07155">
        <ele>519.6</ele>
      </trkpt>
      <trkpt lat="45.27506" lon="4.07137">
        <ele>513.1</ele>
      </trkpt>
      <trkpt lat="45.27515" lon="4.07119">
        <ele>509.2</ele>
      </trkpt>
      <trkpt lat="45.27524" lon="4.07098">
        <ele>507</ele>
      </trkpt>
      <trkpt lat="45.27529" lon="4.07089">
        <ele>506.3</ele>
      </trkpt>
      <trkpt lat="45.27533" lon="4.07084">
        <ele>505.9</ele>
      </trkpt>
      <trkpt lat="45.27537" lon="4.07076">
        <ele>500</ele>
      </trkpt>
      <trkpt lat="45.27538" lon="4.0707">
        <ele>499.7</ele>
      </trkpt>
      <trkpt lat="45.27545" lon="4.07045">
        <ele>498.6</ele>
      </trkpt>
      <trkpt lat="45.27553" lon="4.07005">
        <ele>497.8</ele>
      </trkpt>
      <trkpt lat="45.2756" lon="4.06982">
        <ele>494</ele>
      </trkpt>
      <trkpt lat="45.27576" lon="4.06935">
        <ele>492.9</ele>
      </trkpt>
      <trkpt lat="45.27584" lon="4.06905">
        <ele>489.6</ele>
      </trkpt>
      <trkpt lat="45.27589" lon="4.06878">
        <ele>484.8</ele>
      </trkpt>
      <trkpt lat="45.27589" lon="4.06866">
        <ele>483.7</ele>
      </trkpt>
      <trkpt lat="45.27586" lon="4.06857">
        <ele>483.1</ele>
      </trkpt>
      <trkpt lat="45.27583" lon="4.0685">
        <ele>483.3</ele>
      </trkpt>
      <trkpt lat="45.2758" lon="4.06846">
        <ele>483</ele>
      </trkpt>
      <trkpt lat="45.27571" lon="4.06844">
        <ele>483.1</ele>
      </trkpt>
      <trkpt lat="45.27558" lon="4.06842">
        <ele>483</ele>
      </trkpt>
      <trkpt lat="45.27549" lon="4.06844">
        <ele>482.9</ele>
      </trkpt>
      <trkpt lat="45.27532" lon="4.06848">
        <ele>482.2</ele>
      </trkpt>
      <trkpt lat="45.27525" lon="4.06848">
        <ele>481.6</ele>
      </trkpt>
      <trkpt lat="45.27519" lon="4.06845">
        <ele>481</ele>
      </trkpt>
      <trkpt lat="45.27514" lon="4.0684">
        <ele>480.1</ele>
      </trkpt>
      <trkpt lat="45.27503" lon="4.06813">
        <ele>477.8</ele>
      </trkpt>
      <trkpt lat="45.275" lon="4.06815">
        <ele>477.8</ele>
      </trkpt>
      <trkpt lat="45.27494" lon="4.06817">
        <ele>477.7</ele>
      </trkpt>
      <trkpt lat="45.27491" lon="4.06818">
        <ele>477.7</ele>
      </trkpt>
      <trkpt lat="45.27477" lon="4.06823">
        <ele>478</ele>
      </trkpt>
      <trkpt lat="45.27474" lon="4.06823">
        <ele>478</ele>
      </trkpt>
      <trkpt lat="45.2745" lon="4.06828">
        <ele>478.5</ele>
      </trkpt>
      <trkpt lat="45.27401" lon="4.06835">
        <ele>479.5</ele>
      </trkpt>
      <trkpt lat="45.27352" lon="4.06842">
        <ele>481.6</ele>
      </trkpt>
      <trkpt lat="45.2732" lon="4.06845">
        <ele>482.8</ele>
      </trkpt>
      <trkpt lat="45.27312" lon="4.06846">
        <ele>482.6</ele>
      </trkpt>
      <trkpt lat="45.27313" lon="4.06836">
        <ele>482.8</ele>
      </trkpt>
      <trkpt lat="45.2731" lon="4.06811">
        <ele>485.6</ele>
      </trkpt>
      <trkpt lat="45.27308" lon="4.06794">
        <ele>486.2</ele>
      </trkpt>
      <trkpt lat="45.27305" lon="4.06782">
        <ele>486.6</ele>
      </trkpt>
      <trkpt lat="45.27297" lon="4.06765">
        <ele>486.9</ele>
      </trkpt>
      <trkpt lat="45.27293" lon="4.06757">
        <ele>486.9</ele>
      </trkpt>
      <trkpt lat="45.27291" lon="4.06749">
        <ele>491</ele>
      </trkpt>
      <trkpt lat="45.27292" lon="4.06743">
        <ele>491.1</ele>
      </trkpt>
      <trkpt lat="45.27292" lon="4.0674">
        <ele>491.2</ele>
      </trkpt>
      <trkpt lat="45.27294" lon="4.0673">
        <ele>491.6</ele>
      </trkpt>
      <trkpt lat="45.27299" lon="4.06719">
        <ele>492.3</ele>
      </trkpt>
      <trkpt lat="45.27306" lon="4.06706">
        <ele>493.2</ele>
      </trkpt>
      <trkpt lat="45.27311" lon="4.06689">
        <ele>494.8</ele>
      </trkpt>
      <trkpt lat="45.27319" lon="4.06667">
        <ele>497.4</ele>
      </trkpt>
      <trkpt lat="45.27327" lon="4.0665">
        <ele>501.7</ele>
      </trkpt>
      <trkpt lat="45.27348" lon="4.06618">
        <ele>504.6</ele>
      </trkpt>
      <trkpt lat="45.27381" lon="4.06572">
        <ele>517.6</ele>
      </trkpt>
      <trkpt lat="45.27417" lon="4.06525">
        <ele>517</ele>
      </trkpt>
      <trkpt lat="45.2745" lon="4.06491">
        <ele>533.3</ele>
      </trkpt>
      <trkpt lat="45.27476" lon="4.06471">
        <ele>531.8</ele>
      </trkpt>
      <trkpt lat="45.27505" lon="4.06451">
        <ele>524.2</ele>
      </trkpt>
      <trkpt lat="45.27522" lon="4.06443">
        <ele>524.9</ele>
      </trkpt>
      <trkpt lat="45.27526" lon="4.06439">
        <ele>525.3</ele>
      </trkpt>
      <trkpt lat="45.27528" lon="4.06435">
        <ele>526</ele>
      </trkpt>
      <trkpt lat="45.27506" lon="4.06436">
        <ele>529.5</ele>
      </trkpt>
      <trkpt lat="45.27485" lon="4.06439">
        <ele>537.9</ele>
      </trkpt>
      <trkpt lat="45.27473" lon="4.06444">
        <ele>538</ele>
      </trkpt>
      <trkpt lat="45.27439" lon="4.06466">
        <ele>538.3</ele>
      </trkpt>
      <trkpt lat="45.27415" lon="4.06478">
        <ele>541.8</ele>
      </trkpt>
      <trkpt lat="45.27397" lon="4.06489">
        <ele>540.8</ele>
      </trkpt>
      <trkpt lat="45.27376" lon="4.0651">
        <ele>526.2</ele>
      </trkpt>
      <trkpt lat="45.27353" lon="4.06527">
        <ele>525.8</ele>
      </trkpt>
      <trkpt lat="45.27343" lon="4.06527">
        <ele>526.5</ele>
      </trkpt>
      <trkpt lat="45.27335" lon="4.06522">
        <ele>527.9</ele>
      </trkpt>
      <trkpt lat="45.27329" lon="4.06513">
        <ele>525.2</ele>
      </trkpt>
      <trkpt lat="45.27325" lon="4.06501">
        <ele>528.7</ele>
      </trkpt>
      <trkpt lat="45.27325" lon="4.06489">
        <ele>529.6</ele>
      </trkpt>
      <trkpt lat="45.27328" lon="4.06473">
        <ele>528</ele>
      </trkpt>
      <trkpt lat="45.2733" lon="4.06459">
        <ele>528.7</ele>
      </trkpt>
      <trkpt lat="45.27329" lon="4.06449">
        <ele>530.4</ele>
      </trkpt>
      <trkpt lat="45.27326" lon="4.06437">
        <ele>533.7</ele>
      </trkpt>
      <trkpt lat="45.27323" lon="4.06423">
        <ele>539.1</ele>
      </trkpt>
      <trkpt lat="45.2732" lon="4.06368">
        <ele>538.7</ele>
      </trkpt>
      <trkpt lat="45.27314" lon="4.06273">
        <ele>546.8</ele>
      </trkpt>
      <trkpt lat="45.27311" lon="4.06218">
        <ele>549.5</ele>
      </trkpt>
      <trkpt lat="45.27313" lon="4.06193">
        <ele>551.4</ele>
      </trkpt>
      <trkpt lat="45.27315" lon="4.06181">
        <ele>554.6</ele>
      </trkpt>
      <trkpt lat="45.27319" lon="4.06153">
        <ele>559</ele>
      </trkpt>
      <trkpt lat="45.27319" lon="4.06135">
        <ele>556.4</ele>
      </trkpt>
      <trkpt lat="45.27321" lon="4.06117">
        <ele>556.8</ele>
      </trkpt>
      <trkpt lat="45.27325" lon="4.06107">
        <ele>559.1</ele>
      </trkpt>
      <trkpt lat="45.27326" lon="4.06099">
        <ele>561.6</ele>
      </trkpt>
      <trkpt lat="45.27325" lon="4.06082">
        <ele>568.8</ele>
      </trkpt>
      <trkpt lat="45.2732" lon="4.06064">
        <ele>566</ele>
      </trkpt>
      <trkpt lat="45.27313" lon="4.06046">
        <ele>565.4</ele>
      </trkpt>
      <trkpt lat="45.273" lon="4.06023">
        <ele>565.6</ele>
      </trkpt>
      <trkpt lat="45.2729" lon="4.06011">
        <ele>564.2</ele>
      </trkpt>
      <trkpt lat="45.2728" lon="4.06006">
        <ele>562.2</ele>
      </trkpt>
      <trkpt lat="45.27269" lon="4.06">
        <ele>560</ele>
      </trkpt>
      <trkpt lat="45.27261" lon="4.05993">
        <ele>563.7</ele>
      </trkpt>
      <trkpt lat="45.2725" lon="4.05976">
        <ele>551.2</ele>
      </trkpt>
      <trkpt lat="45.27242" lon="4.05957">
        <ele>551.2</ele>
      </trkpt>
      <trkpt lat="45.2724" lon="4.05946">
        <ele>552.6</ele>
      </trkpt>
      <trkpt lat="45.27242" lon="4.05934">
        <ele>555.6</ele>
      </trkpt>
      <trkpt lat="45.27245" lon="4.05926">
        <ele>559.2</ele>
      </trkpt>
      <trkpt lat="45.27252" lon="4.05919">
        <ele>566.8</ele>
      </trkpt>
      <trkpt lat="45.27262" lon="4.05915">
        <ele>564.5</ele>
      </trkpt>
      <trkpt lat="45.27272" lon="4.05908">
        <ele>564.1</ele>
      </trkpt>
      <trkpt lat="45.27279" lon="4.05902">
        <ele>563.9</ele>
      </trkpt>
      <trkpt lat="45.27285" lon="4.05898">
        <ele>564</ele>
      </trkpt>
      <trkpt lat="45.27297" lon="4.05893">
        <ele>565</ele>
      </trkpt>
      <trkpt lat="45.27312" lon="4.0589">
        <ele>567.1</ele>
      </trkpt>
      <trkpt lat="45.27332" lon="4.05889">
        <ele>569.6</ele>
      </trkpt>
      <trkpt lat="45.27337" lon="4.05888">
        <ele>581.1</ele>
      </trkpt>
      <trkpt lat="45.27343" lon="4.05882">
        <ele>579.6</ele>
      </trkpt>
      <trkpt lat="45.27369" lon="4.05869">
        <ele>578.9</ele>
      </trkpt>
      <trkpt lat="45.27393" lon="4.0586">
        <ele>580.1</ele>
      </trkpt>
      <trkpt lat="45.27404" lon="4.05854">
        <ele>579.7</ele>
      </trkpt>
      <trkpt lat="45.27414" lon="4.05842">
        <ele>577.6</ele>
      </trkpt>
      <trkpt lat="45.27424" lon="4.0582">
        <ele>575.8</ele>
      </trkpt>
      <trkpt lat="45.27437" lon="4.05782">
        <ele>570.4</ele>
      </trkpt>
      <trkpt lat="45.27451" lon="4.05742">
        <ele>551.7</ele>
      </trkpt>
      <trkpt lat="45.27462" lon="4.05713">
        <ele>550.9</ele>
      </trkpt>
      <trkpt lat="45.27475" lon="4.05687">
        <ele>549.9</ele>
      </trkpt>
      <trkpt lat="45.27476" lon="4.05686">
        <ele>549.9</ele>
      </trkpt>
      <trkpt lat="45.27478" lon="4.05682">
        <ele>550</ele>
      </trkpt>
      <trkpt lat="45.27484" lon="4.05675">
        <ele>550.6</ele>
      </trkpt>
      <trkpt lat="45.27498" lon="4.0567">
        <ele>552.5</ele>
      </trkpt>
      <trkpt lat="45.27514" lon="4.05663">
        <ele>555</ele>
      </trkpt>
      <trkpt lat="45.27521" lon="4.05663">
        <ele>555.9</ele>
      </trkpt>
      <trkpt lat="45.27527" lon="4.05665">
        <ele>556.8</ele>
      </trkpt>
      <trkpt lat="45.27538" lon="4.05671">
        <ele>569.5</ele>
      </trkpt>
      <trkpt lat="45.27547" lon="4.05674">
        <ele>571.2</ele>
      </trkpt>
      <trkpt lat="45.27553" lon="4.05673">
        <ele>571.7</ele>
      </trkpt>
      <trkpt lat="45.27557" lon="4.05669">
        <ele>572</ele>
      </trkpt>
      <trkpt lat="45.2756" lon="4.05663">
        <ele>563.1</ele>
      </trkpt>
      <trkpt lat="45.27562" lon="4.05657">
        <ele>563</ele>
      </trkpt>
      <trkpt lat="45.27562" lon="4.0565">
        <ele>562.3</ele>
      </trkpt>
      <trkpt lat="45.27559" lon="4.05641">
        <ele>560.8</ele>
      </trkpt>
      <trkpt lat="45.27553" lon="4.05627">
        <ele>558.9</ele>
      </trkpt>
      <trkpt lat="45.2755" lon="4.05619">
        <ele>558.1</ele>
      </trkpt>
      <trkpt lat="45.27546" lon="4.05609">
        <ele>557.1</ele>
      </trkpt>
      <trkpt lat="45.27542" lon="4.05592">
        <ele>555.6</ele>
      </trkpt>
      <trkpt lat="45.27538" lon="4.05578">
        <ele>555</ele>
      </trkpt>
      <trkpt lat="45.27531" lon="4.05564">
        <ele>554.1</ele>
      </trkpt>
      <trkpt lat="45.27526" lon="4.05559">
        <ele>553.4</ele>
      </trkpt>
      <trkpt lat="45.27521" lon="4.05556">
        <ele>552.7</ele>
      </trkpt>
      <trkpt lat="45.27501" lon="4.05552">
        <ele>550.7</ele>
      </trkpt>
      <trkpt lat="45.27494" lon="4.05548">
        <ele>530.9</ele>
      </trkpt>
      <trkpt lat="45.27482" lon="4.05536">
        <ele>530.2</ele>
      </trkpt>
      <trkpt lat="45.2748" lon="4.05535">
        <ele>530.1</ele>
      </trkpt>
      <trkpt lat="45.2748" lon="4.05534">
        <ele>530.1</ele>
      </trkpt>
      <trkpt lat="45.27464" lon="4.05513">
        <ele>527.8</ele>
      </trkpt>
      <trkpt lat="45.27457" lon="4.055">
        <ele>525.9</ele>
      </trkpt>
      <trkpt lat="45.27451" lon="4.05485">
        <ele>529.6</ele>
      </trkpt>
      <trkpt lat="45.27442" lon="4.05459">
        <ele>529.9</ele>
      </trkpt>
      <trkpt lat="45.27429" lon="4.05413">
        <ele>528.1</ele>
      </trkpt>
      <trkpt lat="45.27407" lon="4.05349">
        <ele>516.1</ele>
      </trkpt>
      <trkpt lat="45.27397" lon="4.05314">
        <ele>517</ele>
      </trkpt>
      <trkpt lat="45.27391" lon="4.05296">
        <ele>515.8</ele>
      </trkpt>
      <trkpt lat="45.27388" lon="4.0528">
        <ele>516</ele>
      </trkpt>
      <trkpt lat="45.27386" lon="4.05265">
        <ele>516.7</ele>
      </trkpt>
      <trkpt lat="45.27385" lon="4.05254">
        <ele>516.8</ele>
      </trkpt>
      <trkpt lat="45.27382" lon="4.05249">
        <ele>521.6</ele>
      </trkpt>
      <trkpt lat="45.27376" lon="4.05244">
        <ele>520.5</ele>
      </trkpt>
      <trkpt lat="45.27371" lon="4.05244">
        <ele>519.6</ele>
      </trkpt>
      <trkpt lat="45.27359" lon="4.05251">
        <ele>511.6</ele>
      </trkpt>
      <trkpt lat="45.27337" lon="4.05266">
        <ele>509</ele>
      </trkpt>
      <trkpt lat="45.27314" lon="4.05283">
        <ele>497.9</ele>
      </trkpt>
      <trkpt lat="45.27304" lon="4.05292">
        <ele>496.7</ele>
      </trkpt>
      <trkpt lat="45.27288" lon="4.05312">
        <ele>494.7</ele>
      </trkpt>
      <trkpt lat="45.27288" lon="4.0533">
        <ele>494.1</ele>
      </trkpt>
      <trkpt lat="45.27291" lon="4.05344">
        <ele>491.1</ele>
      </trkpt>
      <trkpt lat="45.27298" lon="4.05369">
        <ele>491.3</ele>
      </trkpt>
      <trkpt lat="45.27288" lon="4.05375">
        <ele>490.9</ele>
      </trkpt>
      <trkpt lat="45.27265" lon="4.05387">
        <ele>490.3</ele>
      </trkpt>
      <trkpt lat="45.27258" lon="4.05392">
        <ele>490.1</ele>
      </trkpt>
      <trkpt lat="45.27254" lon="4.05395">
        <ele>490</ele>
      </trkpt>
      <trkpt lat="45.27251" lon="4.05399">
        <ele>489.8</ele>
      </trkpt>
      <trkpt lat="45.27247" lon="4.05403">
        <ele>491.1</ele>
      </trkpt>
      <trkpt lat="45.27243" lon="4.05407">
        <ele>491</ele>
      </trkpt>
      <trkpt lat="45.2724" lon="4.05409">
        <ele>491.1</ele>
      </trkpt>
      <trkpt lat="45.27236" lon="4.05407">
        <ele>491.7</ele>
      </trkpt>
      <trkpt lat="45.27229" lon="4.05407">
        <ele>492.5</ele>
      </trkpt>
      <trkpt lat="45.27224" lon="4.05409">
        <ele>492.9</ele>
      </trkpt>
      <trkpt lat="45.2722" lon="4.05414">
        <ele>493.4</ele>
      </trkpt>
      <trkpt lat="45.27217" lon="4.05421">
        <ele>494.8</ele>
      </trkpt>
      <trkpt lat="45.27216" lon="4.05428">
        <ele>495</ele>
      </trkpt>
      <trkpt lat="45.27212" lon="4.05438">
        <ele>495.4</ele>
      </trkpt>
      <trkpt lat="45.27209" lon="4.05443">
        <ele>495.7</ele>
      </trkpt>
      <trkpt lat="45.27206" lon="4.05446">
        <ele>496</ele>
      </trkpt>
      <trkpt lat="45.27195" lon="4.05451">
        <ele>496.8</ele>
      </trkpt>
      <trkpt lat="45.27169" lon="4.05458">
        <ele>498.1</ele>
      </trkpt>
      <trkpt lat="45.27163" lon="4.05461">
        <ele>505</ele>
      </trkpt>
      <trkpt lat="45.27157" lon="4.05468">
        <ele>505</ele>
      </trkpt>
      <trkpt lat="45.27147" lon="4.05486">
        <ele>505</ele>
      </trkpt>
      <trkpt lat="45.27141" lon="4.05492">
        <ele>505.4</ele>
      </trkpt>
      <trkpt lat="45.27131" lon="4.05499">
        <ele>506.5</ele>
      </trkpt>
      <trkpt lat="45.27123" lon="4.05501">
        <ele>504.7</ele>
      </trkpt>
      <trkpt lat="45.27118" lon="4.05501">
        <ele>505.4</ele>
      </trkpt>
      <trkpt lat="45.2711" lon="4.05497">
        <ele>509.1</ele>
      </trkpt>
      <trkpt lat="45.27096" lon="4.05489">
        <ele>510.8</ele>
      </trkpt>
      <trkpt lat="45.27067" lon="4.0548">
        <ele>517.7</ele>
      </trkpt>
      <trkpt lat="45.27048" lon="4.05475">
        <ele>519.4</ele>
      </trkpt>
      <trkpt lat="45.27033" lon="4.05472">
        <ele>520.9</ele>
      </trkpt>
      <trkpt lat="45.2702" lon="4.05474">
        <ele>522.4</ele>
      </trkpt>
      <trkpt lat="45.27008" lon="4.05476">
        <ele>523.7</ele>
      </trkpt>
      <trkpt lat="45.27002" lon="4.05476">
        <ele>524</ele>
      </trkpt>
      <trkpt lat="45.26987" lon="4.0547">
        <ele>536.8</ele>
      </trkpt>
      <trkpt lat="45.26956" lon="4.05457">
        <ele>541.1</ele>
      </trkpt>
      <trkpt lat="45.26942" lon="4.0545">
        <ele>543.2</ele>
      </trkpt>
      <trkpt lat="45.26938" lon="4.05445">
        <ele>544.1</ele>
      </trkpt>
      <trkpt lat="45.26934" lon="4.05438">
        <ele>545.2</ele>
      </trkpt>
      <trkpt lat="45.26927" lon="4.0542">
        <ele>549.2</ele>
      </trkpt>
      <trkpt lat="45.26922" lon="4.05416">
        <ele>548.4</ele>
      </trkpt>
      <trkpt lat="45.2692" lon="4.05414">
        <ele>550.2</ele>
      </trkpt>
      <trkpt lat="45.26915" lon="4.05414">
        <ele>553.7</ele>
      </trkpt>
      <trkpt lat="45.26892" lon="4.05421">
        <ele>562.8</ele>
      </trkpt>
      <trkpt lat="45.26882" lon="4.05427">
        <ele>565.3</ele>
      </trkpt>
      <trkpt lat="45.26879" lon="4.05432">
        <ele>566</ele>
      </trkpt>
      <trkpt lat="45.26878" lon="4.05439">
        <ele>566.5</ele>
      </trkpt>
      <trkpt lat="45.2688" lon="4.05457">
        <ele>566.9</ele>
      </trkpt>
      <trkpt lat="45.26881" lon="4.05477">
        <ele>567.1</ele>
      </trkpt>
      <trkpt lat="45.26879" lon="4.05494">
        <ele>567.7</ele>
      </trkpt>
      <trkpt lat="45.26874" lon="4.05516">
        <ele>570.9</ele>
      </trkpt>
      <trkpt lat="45.26872" lon="4.05519">
        <ele>571.4</ele>
      </trkpt>
      <trkpt lat="45.2687" lon="4.05519">
        <ele>572.1</ele>
      </trkpt>
      <trkpt lat="45.26868" lon="4.05518">
        <ele>572.6</ele>
      </trkpt>
      <trkpt lat="45.26867" lon="4.05513">
        <ele>573.2</ele>
      </trkpt>
      <trkpt lat="45.26858" lon="4.05494">
        <ele>574.4</ele>
      </trkpt>
      <trkpt lat="45.26848" lon="4.05483">
        <ele>575.6</ele>
      </trkpt>
      <trkpt lat="45.26829" lon="4.05462">
        <ele>588.2</ele>
      </trkpt>
      <trkpt lat="45.26813" lon="4.05448">
        <ele>587.6</ele>
      </trkpt>
      <trkpt lat="45.26794" lon="4.05434">
        <ele>588.3</ele>
      </trkpt>
      <trkpt lat="45.26787" lon="4.05429">
        <ele>588.8</ele>
      </trkpt>
      <trkpt lat="45.26776" lon="4.05427">
        <ele>589.5</ele>
      </trkpt>
      <trkpt lat="45.2676" lon="4.05428">
        <ele>589.7</ele>
      </trkpt>
      <trkpt lat="45.26748" lon="4.05431">
        <ele>594.4</ele>
      </trkpt>
      <trkpt lat="45.26737" lon="4.05436">
        <ele>597</ele>
      </trkpt>
      <trkpt lat="45.26727" lon="4.05441">
        <ele>599.1</ele>
      </trkpt>
      <trkpt lat="45.26707" lon="4.05464">
        <ele>603.7</ele>
      </trkpt>
      <trkpt lat="45.26698" lon="4.05474">
        <ele>605.7</ele>
      </trkpt>
      <trkpt lat="45.26698" lon="4.05477">
        <ele>606.3</ele>
      </trkpt>
      <trkpt lat="45.267" lon="4.0548">
        <ele>606.6</ele>
      </trkpt>
      <trkpt lat="45.26717" lon="4.05483">
        <ele>606.5</ele>
      </trkpt>
      <trkpt lat="45.26729" lon="4.05488">
        <ele>607.6</ele>
      </trkpt>
      <trkpt lat="45.26735" lon="4.05493">
        <ele>608.9</ele>
      </trkpt>
      <trkpt lat="45.2674" lon="4.05504">
        <ele>618.5</ele>
      </trkpt>
      <trkpt lat="45.26752" lon="4.05538">
        <ele>611.6</ele>
      </trkpt>
      <trkpt lat="45.26753" lon="4.05546">
        <ele>612.7</ele>
      </trkpt>
      <trkpt lat="45.26752" lon="4.0555">
        <ele>613.7</ele>
      </trkpt>
      <trkpt lat="45.26749" lon="4.05552">
        <ele>626.9</ele>
      </trkpt>
      <trkpt lat="45.26745" lon="4.05552">
        <ele>626.9</ele>
      </trkpt>
      <trkpt lat="45.26721" lon="4.05537">
        <ele>626.1</ele>
      </trkpt>
      <trkpt lat="45.26712" lon="4.05535">
        <ele>626.5</ele>
      </trkpt>
      <trkpt lat="45.26704" lon="4.05537">
        <ele>627.1</ele>
      </trkpt>
      <trkpt lat="45.26693" lon="4.05545">
        <ele>628.9</ele>
      </trkpt>
      <trkpt lat="45.26667" lon="4.05573">
        <ele>641.8</ele>
      </trkpt>
      <trkpt lat="45.26659" lon="4.05578">
        <ele>642.1</ele>
      </trkpt>
      <trkpt lat="45.26651" lon="4.05582">
        <ele>640.8</ele>
      </trkpt>
      <trkpt lat="45.26645" lon="4.05585">
        <ele>653</ele>
      </trkpt>
      <trkpt lat="45.26624" lon="4.056">
        <ele>655.9</ele>
      </trkpt>
      <trkpt lat="45.26618" lon="4.05605">
        <ele>656.5</ele>
      </trkpt>
      <trkpt lat="45.26618" lon="4.05608">
        <ele>656.9</ele>
      </trkpt>
      <trkpt lat="45.2662" lon="4.05612">
        <ele>657.4</ele>
      </trkpt>
      <trkpt lat="45.26624" lon="4.05611">
        <ele>657.3</ele>
      </trkpt>
      <trkpt lat="45.2663" lon="4.05609">
        <ele>656.9</ele>
      </trkpt>
      <trkpt lat="45.2665" lon="4.05614">
        <ele>656.6</ele>
      </trkpt>
      <trkpt lat="45.26677" lon="4.05623">
        <ele>648.7</ele>
      </trkpt>
      <trkpt lat="45.26682" lon="4.05628">
        <ele>649</ele>
      </trkpt>
      <trkpt lat="45.26685" lon="4.05635">
        <ele>650.1</ele>
      </trkpt>
      <trkpt lat="45.26685" lon="4.05642">
        <ele>651.6</ele>
      </trkpt>
      <trkpt lat="45.26682" lon="4.05654">
        <ele>655.1</ele>
      </trkpt>
      <trkpt lat="45.2668" lon="4.05662">
        <ele>658.1</ele>
      </trkpt>
      <trkpt lat="45.26665" lon="4.05685">
        <ele>671.3</ele>
      </trkpt>
      <trkpt lat="45.26642" lon="4.05719">
        <ele>674</ele>
      </trkpt>
      <trkpt lat="45.26634" lon="4.05735">
        <ele>674.9</ele>
      </trkpt>
      <trkpt lat="45.26627" lon="4.05758">
        <ele>677.1</ele>
      </trkpt>
      <trkpt lat="45.26622" lon="4.05777">
        <ele>677.5</ele>
      </trkpt>
      <trkpt lat="45.26618" lon="4.05786">
        <ele>677.8</ele>
      </trkpt>
      <trkpt lat="45.26611" lon="4.05793">
        <ele>678.5</ele>
      </trkpt>
      <trkpt lat="45.26598" lon="4.05801">
        <ele>680.3</ele>
      </trkpt>
      <trkpt lat="45.26572" lon="4.05818">
        <ele>690.8</ele>
      </trkpt>
      <trkpt lat="45.26539" lon="4.05841">
        <ele>694.1</ele>
      </trkpt>
      <trkpt lat="45.26504" lon="4.05866">
        <ele>696.3</ele>
      </trkpt>
      <trkpt lat="45.26476" lon="4.05888">
        <ele>704.2</ele>
      </trkpt>
      <trkpt lat="45.26451" lon="4.05908">
        <ele>706.2</ele>
      </trkpt>
      <trkpt lat="45.26437" lon="4.05918">
        <ele>707.5</ele>
      </trkpt>
      <trkpt lat="45.26425" lon="4.0592">
        <ele>709.5</ele>
      </trkpt>
      <trkpt lat="45.26424" lon="4.05926">
        <ele>708.9</ele>
      </trkpt>
      <trkpt lat="45.26421" lon="4.05935">
        <ele>707.8</ele>
      </trkpt>
      <trkpt lat="45.26419" lon="4.0594">
        <ele>707.4</ele>
      </trkpt>
      <trkpt lat="45.26415" lon="4.05946">
        <ele>711.6</ele>
      </trkpt>
      <trkpt lat="45.26402" lon="4.05959">
        <ele>711.4</ele>
      </trkpt>
      <trkpt lat="45.26398" lon="4.05961">
        <ele>711.4</ele>
      </trkpt>
      <trkpt lat="45.26384" lon="4.05968">
        <ele>711.6</ele>
      </trkpt>
      <trkpt lat="45.26378" lon="4.0597">
        <ele>711.7</ele>
      </trkpt>
      <trkpt lat="45.26369" lon="4.0597">
        <ele>711.9</ele>
      </trkpt>
      <trkpt lat="45.2636" lon="4.0597">
        <ele>712.2</ele>
      </trkpt>
      <trkpt lat="45.26345" lon="4.05978">
        <ele>712.4</ele>
      </trkpt>
      <trkpt lat="45.2633" lon="4.05986">
        <ele>714.9</ele>
      </trkpt>
      <trkpt lat="45.26324" lon="4.05987">
        <ele>715</ele>
      </trkpt>
      <trkpt lat="45.26323" lon="4.05996">
        <ele>714.6</ele>
      </trkpt>
      <trkpt lat="45.26317" lon="4.06043">
        <ele>713.1</ele>
      </trkpt>
      <trkpt lat="45.26316" lon="4.06048">
        <ele>712.9</ele>
      </trkpt>
      <trkpt lat="45.2631" lon="4.06081">
        <ele>711.2</ele>
      </trkpt>
      <trkpt lat="45.26307" lon="4.0611">
        <ele>709.7</ele>
      </trkpt>
      <trkpt lat="45.26307" lon="4.0612">
        <ele>709.7</ele>
      </trkpt>
      <trkpt lat="45.26305" lon="4.06134">
        <ele>711.03</ele>
      </trkpt>
      <trkpt lat="45.26295" lon="4.06148">
        <ele>711.51</ele>
      </trkpt>
      <trkpt lat="45.26286" lon="4.06159">
        <ele>711.99</ele>
      </trkpt>
      <trkpt lat="45.26285" lon="4.06159">
        <ele>711.99</ele>
      </trkpt>
      <trkpt lat="45.2628" lon="4.06164">
        <ele>711.99</ele>
      </trkpt>
      <trkpt lat="45.26269" lon="4.06178">
        <ele>712.47</ele>
      </trkpt>
      <trkpt lat="45.26262" lon="4.06178">
        <ele>712.47</ele>
      </trkpt>
      <trkpt lat="45.26256" lon="4.06178">
        <ele>712.95</ele>
      </trkpt>
      <trkpt lat="45.26247" lon="4.06177">
        <ele>713.44</ele>
      </trkpt>
      <trkpt lat="45.26238" lon="4.06179">
        <ele>714.4</ele>
      </trkpt>
      <trkpt lat="45.26234" lon="4.06183">
        <ele>715.36</ele>
      </trkpt>
      <trkpt lat="45.26234" lon="4.06182">
        <ele>722.6</ele>
      </trkpt>
      <trkpt lat="45.26229" lon="4.06189">
        <ele>723.3</ele>
      </trkpt>
      <trkpt lat="45.26218" lon="4.06208">
        <ele>724</ele>
      </trkpt>
      <trkpt lat="45.26204" lon="4.06226">
        <ele>724.9</ele>
      </trkpt>
      <trkpt lat="45.26194" lon="4.06233">
        <ele>726.1</ele>
      </trkpt>
      <trkpt lat="45.26188" lon="4.06232">
        <ele>726.8</ele>
      </trkpt>
      <trkpt lat="45.26181" lon="4.06237">
        <ele>727.7</ele>
      </trkpt>
      <trkpt lat="45.26177" lon="4.06241">
        <ele>728.5</ele>
      </trkpt>
      <trkpt lat="45.26167" lon="4.06245">
        <ele>729.9</ele>
      </trkpt>
      <trkpt lat="45.26156" lon="4.06243">
        <ele>736.5</ele>
      </trkpt>
      <trkpt lat="45.26146" lon="4.06241">
        <ele>739.2</ele>
      </trkpt>
      <trkpt lat="45.26134" lon="4.06242">
        <ele>741.8</ele>
      </trkpt>
      <trkpt lat="45.26114" lon="4.0625">
        <ele>744.4</ele>
      </trkpt>
      <trkpt lat="45.26097" lon="4.06264">
        <ele>742.6</ele>
      </trkpt>
      <trkpt lat="45.26087" lon="4.06275">
        <ele>741.2</ele>
      </trkpt>
      <trkpt lat="45.26072" lon="4.06296">
        <ele>748.8</ele>
      </trkpt>
      <trkpt lat="45.26063" lon="4.06305">
        <ele>748.4</ele>
      </trkpt>
      <trkpt lat="45.2605" lon="4.06309">
        <ele>749.4</ele>
      </trkpt>
      <trkpt lat="45.26042" lon="4.06306">
        <ele>750.5</ele>
      </trkpt>
      <trkpt lat="45.26028" lon="4.06299">
        <ele>752.3</ele>
      </trkpt>
      <trkpt lat="45.26005" lon="4.06295">
        <ele>753.9</ele>
      </trkpt>
      <trkpt lat="45.25995" lon="4.06297">
        <ele>762.9</ele>
      </trkpt>
      <trkpt lat="45.25984" lon="4.06305">
        <ele>762.5</ele>
      </trkpt>
      <trkpt lat="45.25974" lon="4.0632">
        <ele>762.2</ele>
      </trkpt>
      <trkpt lat="45.25959" lon="4.06343">
        <ele>760.3</ele>
      </trkpt>
      <trkpt lat="45.25944" lon="4.06362">
        <ele>762</ele>
      </trkpt>
      <trkpt lat="45.25923" lon="4.06385">
        <ele>763.6</ele>
      </trkpt>
      <trkpt lat="45.25908" lon="4.06405">
        <ele>775.3</ele>
      </trkpt>
      <trkpt lat="45.25899" lon="4.06418">
        <ele>776.9</ele>
      </trkpt>
      <trkpt lat="45.25895" lon="4.06421">
        <ele>778.3</ele>
      </trkpt>
      <trkpt lat="45.25889" lon="4.06419">
        <ele>780.3</ele>
      </trkpt>
      <trkpt lat="45.25884" lon="4.06412">
        <ele>781</ele>
      </trkpt>
      <trkpt lat="45.2588" lon="4.06399">
        <ele>782</ele>
      </trkpt>
      <trkpt lat="45.25864" lon="4.06316">
        <ele>786.5</ele>
      </trkpt>
      <trkpt lat="45.25861" lon="4.06296">
        <ele>786.6</ele>
      </trkpt>
      <trkpt lat="45.25861" lon="4.06277">
        <ele>787.1</ele>
      </trkpt>
      <trkpt lat="45.25861" lon="4.06249">
        <ele>790.5</ele>
      </trkpt>
      <trkpt lat="45.25862" lon="4.06227">
        <ele>790.2</ele>
      </trkpt>
      <trkpt lat="45.25861" lon="4.06213">
        <ele>790.4</ele>
      </trkpt>
      <trkpt lat="45.2586" lon="4.06195">
        <ele>791.3</ele>
      </trkpt>
      <trkpt lat="45.25857" lon="4.06181">
        <ele>792.5</ele>
      </trkpt>
      <trkpt lat="45.25852" lon="4.06154">
        <ele>795.7</ele>
      </trkpt>
      <trkpt lat="45.25849" lon="4.0613">
        <ele>795.2</ele>
      </trkpt>
      <trkpt lat="45.25848" lon="4.06123">
        <ele>795.4</ele>
      </trkpt>
      <trkpt lat="45.25846" lon="4.06107">
        <ele>796.4</ele>
      </trkpt>
      <trkpt lat="45.25841" lon="4.06084">
        <ele>799.7</ele>
      </trkpt>
      <trkpt lat="45.25835" lon="4.06058">
        <ele>796.2</ele>
      </trkpt>
      <trkpt lat="45.25832" lon="4.06037">
        <ele>807.9</ele>
      </trkpt>
      <trkpt lat="45.2583" lon="4.06019">
        <ele>805.4</ele>
      </trkpt>
      <trkpt lat="45.2583" lon="4.06016">
        <ele>804.8</ele>
      </trkpt>
      <trkpt lat="45.25826" lon="4.05989">
        <ele>802.5</ele>
      </trkpt>
      <trkpt lat="45.25819" lon="4.05959">
        <ele>805.5</ele>
      </trkpt>
      <trkpt lat="45.25806" lon="4.05918">
        <ele>805.2</ele>
      </trkpt>
      <trkpt lat="45.25797" lon="4.05897">
        <ele>804.1</ele>
      </trkpt>
      <trkpt lat="45.25793" lon="4.0588">
        <ele>804.2</ele>
      </trkpt>
      <trkpt lat="45.25792" lon="4.05853">
        <ele>803.6</ele>
      </trkpt>
      <trkpt lat="45.25791" lon="4.05836">
        <ele>803.6</ele>
      </trkpt>
      <trkpt lat="45.25786" lon="4.05823">
        <ele>801.2</ele>
      </trkpt>
      <trkpt lat="45.2578" lon="4.05813">
        <ele>801.7</ele>
      </trkpt>
      <trkpt lat="45.25771" lon="4.05803">
        <ele>802.1</ele>
      </trkpt>
      <trkpt lat="45.25762" lon="4.05797">
        <ele>802.4</ele>
      </trkpt>
      <trkpt lat="45.25756" lon="4.05792">
        <ele>802.5</ele>
      </trkpt>
      <trkpt lat="45.25752" lon="4.05788">
        <ele>802.5</ele>
      </trkpt>
      <trkpt lat="45.25749" lon="4.05782">
        <ele>812.6</ele>
      </trkpt>
      <trkpt lat="45.25742" lon="4.05764">
        <ele>810.5</ele>
      </trkpt>
      <trkpt lat="45.25737" lon="4.05754">
        <ele>810.1</ele>
      </trkpt>
      <trkpt lat="45.25732" lon="4.05743">
        <ele>808.4</ele>
      </trkpt>
      <trkpt lat="45.25727" lon="4.05736">
        <ele>809.1</ele>
      </trkpt>
      <trkpt lat="45.25722" lon="4.05728">
        <ele>809.7</ele>
      </trkpt>
      <trkpt lat="45.25715" lon="4.05719">
        <ele>810.3</ele>
      </trkpt>
      <trkpt lat="45.25708" lon="4.0571">
        <ele>810.6</ele>
      </trkpt>
      <trkpt lat="45.25703" lon="4.05702">
        <ele>810.7</ele>
      </trkpt>
      <trkpt lat="45.25698" lon="4.05696">
        <ele>811.1</ele>
      </trkpt>
      <trkpt lat="45.25697" lon="4.05694">
        <ele>811.2</ele>
      </trkpt>
      <trkpt lat="45.25693" lon="4.0569">
        <ele>811.6</ele>
      </trkpt>
      <trkpt lat="45.25687" lon="4.05684">
        <ele>812.3</ele>
      </trkpt>
      <trkpt lat="45.2568" lon="4.05677">
        <ele>813.2</ele>
      </trkpt>
      <trkpt lat="45.25672" lon="4.05669">
        <ele>814.9</ele>
      </trkpt>
      <trkpt lat="45.25664" lon="4.05664">
        <ele>816.1</ele>
      </trkpt>
      <trkpt lat="45.25657" lon="4.05659">
        <ele>816.4</ele>
      </trkpt>
      <trkpt lat="45.2565" lon="4.05654">
        <ele>816.6</ele>
      </trkpt>
      <trkpt lat="45.25646" lon="4.05652">
        <ele>816.8</ele>
      </trkpt>
      <trkpt lat="45.25642" lon="4.05652">
        <ele>817</ele>
      </trkpt>
      <trkpt lat="45.25635" lon="4.05652">
        <ele>817.4</ele>
      </trkpt>
      <trkpt lat="45.25635" lon="4.0565">
        <ele>817.3</ele>
      </trkpt>
      <trkpt lat="45.25632" lon="4.05643">
        <ele>817.2</ele>
      </trkpt>
      <trkpt lat="45.25623" lon="4.05631">
        <ele>817.2</ele>
      </trkpt>
      <trkpt lat="45.25602" lon="4.05606">
        <ele>816.7</ele>
      </trkpt>
      <trkpt lat="45.25592" lon="4.05595">
        <ele>816.4</ele>
      </trkpt>
      <trkpt lat="45.2559" lon="4.05592">
        <ele>816.3</ele>
      </trkpt>
      <trkpt lat="45.25589" lon="4.05589">
        <ele>816.2</ele>
      </trkpt>
      <trkpt lat="45.25588" lon="4.05584">
        <ele>816.1</ele>
      </trkpt>
      <trkpt lat="45.25587" lon="4.05581">
        <ele>814.5</ele>
      </trkpt>
      <trkpt lat="45.25587" lon="4.05574">
        <ele>813.4</ele>
      </trkpt>
      <trkpt lat="45.25585" lon="4.05569">
        <ele>812.5</ele>
      </trkpt>
      <trkpt lat="45.2558" lon="4.05549">
        <ele>813.5</ele>
      </trkpt>
      <trkpt lat="45.25579" lon="4.05544">
        <ele>813.1</ele>
      </trkpt>
      <trkpt lat="45.25576" lon="4.05538">
        <ele>812.6</ele>
      </trkpt>
      <trkpt lat="45.25573" lon="4.05533">
        <ele>812.3</ele>
      </trkpt>
      <trkpt lat="45.25558" lon="4.05518">
        <ele>811.6</ele>
      </trkpt>
      <trkpt lat="45.25557" lon="4.05516">
        <ele>811.6</ele>
      </trkpt>
      <trkpt lat="45.25555" lon="4.05511">
        <ele>811.4</ele>
      </trkpt>
      <trkpt lat="45.25554" lon="4.05504">
        <ele>811.2</ele>
      </trkpt>
      <trkpt lat="45.25554" lon="4.05503">
        <ele>811.1</ele>
      </trkpt>
      <trkpt lat="45.25554" lon="4.05498">
        <ele>805.2</ele>
      </trkpt>
      <trkpt lat="45.25551" lon="4.05493">
        <ele>805</ele>
      </trkpt>
      <trkpt lat="45.25549" lon="4.05492">
        <ele>805</ele>
      </trkpt>
      <trkpt lat="45.25538" lon="4.05499">
        <ele>805.3</ele>
      </trkpt>
      <trkpt lat="45.25526" lon="4.05508">
        <ele>811.8</ele>
      </trkpt>
      <trkpt lat="45.25514" lon="4.05517">
        <ele>811.9</ele>
      </trkpt>
      <trkpt lat="45.25506" lon="4.05524">
        <ele>812.5</ele>
      </trkpt>
      <trkpt lat="45.255" lon="4.05533">
        <ele>813.6</ele>
      </trkpt>
      <trkpt lat="45.25494" lon="4.05542">
        <ele>816.2</ele>
      </trkpt>
      <trkpt lat="45.25491" lon="4.05551">
        <ele>817.3</ele>
      </trkpt>
      <trkpt lat="45.25489" lon="4.0556">
        <ele>818.4</ele>
      </trkpt>
      <trkpt lat="45.25489" lon="4.05571">
        <ele>819.8</ele>
      </trkpt>
      <trkpt lat="45.25488" lon="4.05576">
        <ele>820.4</ele>
      </trkpt>
      <trkpt lat="45.25486" lon="4.05584">
        <ele>826.1</ele>
      </trkpt>
      <trkpt lat="45.25483" lon="4.05587">
        <ele>826.6</ele>
      </trkpt>
      <trkpt lat="45.25477" lon="4.05595">
        <ele>827.7</ele>
      </trkpt>
      <trkpt lat="45.25471" lon="4.05598">
        <ele>828.4</ele>
      </trkpt>
      <trkpt lat="45.25464" lon="4.05599">
        <ele>828.8</ele>
      </trkpt>
      <trkpt lat="45.25452" lon="4.05599">
        <ele>829.1</ele>
      </trkpt>
      <trkpt lat="45.25448" lon="4.05601">
        <ele>829.3</ele>
      </trkpt>
      <trkpt lat="45.25443" lon="4.05605">
        <ele>829.5</ele>
      </trkpt>
      <trkpt lat="45.25438" lon="4.05609">
        <ele>829.8</ele>
      </trkpt>
      <trkpt lat="45.25427" lon="4.05622">
        <ele>831.3</ele>
      </trkpt>
      <trkpt lat="45.25411" lon="4.05636">
        <ele>836.9</ele>
      </trkpt>
      <trkpt lat="45.25401" lon="4.05648">
        <ele>838.1</ele>
      </trkpt>
      <trkpt lat="45.25395" lon="4.05655">
        <ele>838.5</ele>
      </trkpt>
      <trkpt lat="45.25391" lon="4.05662">
        <ele>838.8</ele>
      </trkpt>
      <trkpt lat="45.25388" lon="4.05667">
        <ele>847</ele>
      </trkpt>
      <trkpt lat="45.25386" lon="4.05674">
        <ele>847.5</ele>
      </trkpt>
      <trkpt lat="45.25384" lon="4.05679">
        <ele>847.9</ele>
      </trkpt>
      <trkpt lat="45.25383" lon="4.05686">
        <ele>848.5</ele>
      </trkpt>
      <trkpt lat="45.25382" lon="4.05691">
        <ele>848.9</ele>
      </trkpt>
      <trkpt lat="45.25381" lon="4.05695">
        <ele>849.3</ele>
      </trkpt>
      <trkpt lat="45.25375" lon="4.05705">
        <ele>850.3</ele>
      </trkpt>
      <trkpt lat="45.2537" lon="4.05714">
        <ele>851.1</ele>
      </trkpt>
      <trkpt lat="45.25365" lon="4.05719">
        <ele>851.8</ele>
      </trkpt>
      <trkpt lat="45.25361" lon="4.05722">
        <ele>852.4</ele>
      </trkpt>
      <trkpt lat="45.25355" lon="4.05725">
        <ele>853.1</ele>
      </trkpt>
      <trkpt lat="45.25351" lon="4.05729">
        <ele>853.9</ele>
      </trkpt>
      <trkpt lat="45.25348" lon="4.05734">
        <ele>854.8</ele>
      </trkpt>
      <trkpt lat="45.25342" lon="4.05747">
        <ele>857.7</ele>
      </trkpt>
      <trkpt lat="45.25338" lon="4.05756">
        <ele>861.5</ele>
      </trkpt>
      <trkpt lat="45.25337" lon="4.05763">
        <ele>861.9</ele>
      </trkpt>
      <trkpt lat="45.25337" lon="4.05769">
        <ele>862.3</ele>
      </trkpt>
      <trkpt lat="45.25337" lon="4.05782">
        <ele>863.3</ele>
      </trkpt>
      <trkpt lat="45.25338" lon="4.05796">
        <ele>864.7</ele>
      </trkpt>
      <trkpt lat="45.25338" lon="4.05809">
        <ele>866.5</ele>
      </trkpt>
      <trkpt lat="45.25337" lon="4.05816">
        <ele>867.7</ele>
      </trkpt>
      <trkpt lat="45.25333" lon="4.05821">
        <ele>873.2</ele>
      </trkpt>
      <trkpt lat="45.25327" lon="4.05827">
        <ele>873.4</ele>
      </trkpt>
      <trkpt lat="45.25324" lon="4.05834">
        <ele>877.3</ele>
      </trkpt>
      <trkpt lat="45.25322" lon="4.05844">
        <ele>879.4</ele>
      </trkpt>
      <trkpt lat="45.25317" lon="4.05861">
        <ele>883</ele>
      </trkpt>
      <trkpt lat="45.25311" lon="4.05878">
        <ele>885.3</ele>
      </trkpt>
      <trkpt lat="45.25305" lon="4.05891">
        <ele>886.6</ele>
      </trkpt>
      <trkpt lat="45.25299" lon="4.05903">
        <ele>887.7</ele>
      </trkpt>
      <trkpt lat="45.25297" lon="4.05908">
        <ele>888.1</ele>
      </trkpt>
      <trkpt lat="45.25293" lon="4.05918">
        <ele>897.5</ele>
      </trkpt>
      <trkpt lat="45.25288" lon="4.05916">
        <ele>889.6</ele>
      </trkpt>
      <trkpt lat="45.25282" lon="4.0591">
        <ele>890.5</ele>
      </trkpt>
      <trkpt lat="45.25275" lon="4.05904">
        <ele>891.3</ele>
      </trkpt>
      <trkpt lat="45.25269" lon="4.05897">
        <ele>891.4</ele>
      </trkpt>
      <trkpt lat="45.25258" lon="4.05882">
        <ele>890.2</ele>
      </trkpt>
      <trkpt lat="45.2525" lon="4.05868">
        <ele>899.1</ele>
      </trkpt>
      <trkpt lat="45.25241" lon="4.05853">
        <ele>896.9</ele>
      </trkpt>
      <trkpt lat="45.25233" lon="4.05844">
        <ele>896.6</ele>
      </trkpt>
      <trkpt lat="45.25224" lon="4.05838">
        <ele>898.2</ele>
      </trkpt>
      <trkpt lat="45.25216" lon="4.05835">
        <ele>899.7</ele>
      </trkpt>
      <trkpt lat="45.25211" lon="4.05835">
        <ele>900.7</ele>
      </trkpt>
      <trkpt lat="45.25206" lon="4.05839">
        <ele>901.6</ele>
      </trkpt>
      <trkpt lat="45.25202" lon="4.05848">
        <ele>902.5</ele>
      </trkpt>
      <trkpt lat="45.25198" lon="4.05857">
        <ele>903.4</ele>
      </trkpt>
      <trkpt lat="45.25194" lon="4.05868">
        <ele>904.5</ele>
      </trkpt>
      <trkpt lat="45.25188" lon="4.05877">
        <ele>905.8</ele>
      </trkpt>
      <trkpt lat="45.25181" lon="4.05883">
        <ele>907.1</ele>
      </trkpt>
      <trkpt lat="45.25173" lon="4.05887">
        <ele>908.3</ele>
      </trkpt>
      <trkpt lat="45.25168" lon="4.05888">
        <ele>908.8</ele>
      </trkpt>
      <trkpt lat="45.25158" lon="4.05887">
        <ele>917.3</ele>
      </trkpt>
      <trkpt lat="45.25148" lon="4.05886">
        <ele>917.5</ele>
      </trkpt>
      <trkpt lat="45.25137" lon="4.05886">
        <ele>917.9</ele>
      </trkpt>
      <trkpt lat="45.25131" lon="4.05888">
        <ele>918.4</ele>
      </trkpt>
      <trkpt lat="45.25125" lon="4.05892">
        <ele>919</ele>
      </trkpt>
      <trkpt lat="45.25118" lon="4.05901">
        <ele>920</ele>
      </trkpt>
      <trkpt lat="45.25114" lon="4.05907">
        <ele>920.7</ele>
      </trkpt>
      <trkpt lat="45.25107" lon="4.05912">
        <ele>921.6</ele>
      </trkpt>
      <trkpt lat="45.25101" lon="4.05921">
        <ele>926.9</ele>
      </trkpt>
      <trkpt lat="45.25096" lon="4.05928">
        <ele>927.1</ele>
      </trkpt>
      <trkpt lat="45.25092" lon="4.05938">
        <ele>927.5</ele>
      </trkpt>
      <trkpt lat="45.25087" lon="4.05946">
        <ele>927.9</ele>
      </trkpt>
      <trkpt lat="45.25082" lon="4.05954">
        <ele>932.5</ele>
      </trkpt>
      <trkpt lat="45.2508" lon="4.0596">
        <ele>933</ele>
      </trkpt>
      <trkpt lat="45.25079" lon="4.05966">
        <ele>933.4</ele>
      </trkpt>
      <trkpt lat="45.25078" lon="4.05971">
        <ele>933.6</ele>
      </trkpt>
      <trkpt lat="45.25076" lon="4.05974">
        <ele>933.7</ele>
      </trkpt>
      <trkpt lat="45.25072" lon="4.05977">
        <ele>933.9</ele>
      </trkpt>
      <trkpt lat="45.25065" lon="4.05981">
        <ele>934.2</ele>
      </trkpt>
      <trkpt lat="45.25063" lon="4.05981">
        <ele>934.3</ele>
      </trkpt>
      <trkpt lat="45.2506" lon="4.05982">
        <ele>934.4</ele>
      </trkpt>
      <trkpt lat="45.25053" lon="4.05983">
        <ele>934.8</ele>
      </trkpt>
      <trkpt lat="45.2505" lon="4.05982">
        <ele>934.9</ele>
      </trkpt>
      <trkpt lat="45.25047" lon="4.05978">
        <ele>934.9</ele>
      </trkpt>
      <trkpt lat="45.25044" lon="4.0597">
        <ele>934.7</ele>
      </trkpt>
      <trkpt lat="45.25039" lon="4.05963">
        <ele>934.6</ele>
      </trkpt>
      <trkpt lat="45.25034" lon="4.05958">
        <ele>934.6</ele>
      </trkpt>
      <trkpt lat="45.25026" lon="4.05953">
        <ele>934.6</ele>
      </trkpt>
      <trkpt lat="45.25019" lon="4.05949">
        <ele>934.6</ele>
      </trkpt>
      <trkpt lat="45.25011" lon="4.05945">
        <ele>934.5</ele>
      </trkpt>
      <trkpt lat="45.25006" lon="4.05941">
        <ele>934.3</ele>
      </trkpt>
      <trkpt lat="45.24997" lon="4.05932">
        <ele>937.7</ele>
      </trkpt>
      <trkpt lat="45.24989" lon="4.05923">
        <ele>937.1</ele>
      </trkpt>
      <trkpt lat="45.24982" lon="4.05916">
        <ele>934.4</ele>
      </trkpt>
      <trkpt lat="45.24974" lon="4.05904">
        <ele>934.8</ele>
      </trkpt>
      <trkpt lat="45.24967" lon="4.05891">
        <ele>935.1</ele>
      </trkpt>
      <trkpt lat="45.24962" lon="4.05884">
        <ele>935.1</ele>
      </trkpt>
      <trkpt lat="45.24955" lon="4.05877">
        <ele>935.3</ele>
      </trkpt>
      <trkpt lat="45.24949" lon="4.05872">
        <ele>935.4</ele>
      </trkpt>
      <trkpt lat="45.24942" lon="4.05864">
        <ele>935.5</ele>
      </trkpt>
      <trkpt lat="45.24937" lon="4.05858">
        <ele>935.5</ele>
      </trkpt>
      <trkpt lat="45.24933" lon="4.05851">
        <ele>935.5</ele>
      </trkpt>
      <trkpt lat="45.24929" lon="4.05846">
        <ele>935.6</ele>
      </trkpt>
      <trkpt lat="45.24924" lon="4.05839">
        <ele>935.7</ele>
      </trkpt>
      <trkpt lat="45.24919" lon="4.05834">
        <ele>935.9</ele>
      </trkpt>
      <trkpt lat="45.24913" lon="4.05828">
        <ele>935.3</ele>
      </trkpt>
      <trkpt lat="45.24907" lon="4.05822">
        <ele>934.7</ele>
      </trkpt>
      <trkpt lat="45.24903" lon="4.05817">
        <ele>934.3</ele>
      </trkpt>
      <trkpt lat="45.24901" lon="4.05811">
        <ele>933.9</ele>
      </trkpt>
      <trkpt lat="45.249" lon="4.05804">
        <ele>933.5</ele>
      </trkpt>
      <trkpt lat="45.24898" lon="4.05789">
        <ele>932.6</ele>
      </trkpt>
      <trkpt lat="45.24896" lon="4.05771">
        <ele>931.5</ele>
      </trkpt>
      <trkpt lat="45.24893" lon="4.05759">
        <ele>931</ele>
      </trkpt>
      <trkpt lat="45.24892" lon="4.05749">
        <ele>925.7</ele>
      </trkpt>
      <trkpt lat="45.24889" lon="4.05738">
        <ele>925.2</ele>
      </trkpt>
      <trkpt lat="45.24887" lon="4.05726">
        <ele>924.6</ele>
      </trkpt>
      <trkpt lat="45.24887" lon="4.05711">
        <ele>923.7</ele>
      </trkpt>
      <trkpt lat="45.24886" lon="4.05708">
        <ele>923.5</ele>
      </trkpt>
      <trkpt lat="45.24883" lon="4.05703">
        <ele>923.3</ele>
      </trkpt>
      <trkpt lat="45.24875" lon="4.05699">
        <ele>923.2</ele>
      </trkpt>
      <trkpt lat="45.24861" lon="4.05696">
        <ele>923.4</ele>
      </trkpt>
      <trkpt lat="45.24851" lon="4.05693">
        <ele>923.3</ele>
      </trkpt>
      <trkpt lat="45.24843" lon="4.05691">
        <ele>923.3</ele>
      </trkpt>
      <trkpt lat="45.24837" lon="4.05691">
        <ele>923.3</ele>
      </trkpt>
      <trkpt lat="45.24831" lon="4.05691">
        <ele>923.4</ele>
      </trkpt>
      <trkpt lat="45.24822" lon="4.05692">
        <ele>923.4</ele>
      </trkpt>
      <trkpt lat="45.24813" lon="4.05692">
        <ele>923.4</ele>
      </trkpt>
      <trkpt lat="45.24807" lon="4.05693">
        <ele>923.3</ele>
      </trkpt>
      <trkpt lat="45.24803" lon="4.05693">
        <ele>923.3</ele>
      </trkpt>
      <trkpt lat="45.24801" lon="4.05694">
        <ele>923.3</ele>
      </trkpt>
      <trkpt lat="45.24798" lon="4.05695">
        <ele>923.2</ele>
      </trkpt>
      <trkpt lat="45.24794" lon="4.05697">
        <ele>923.2</ele>
      </trkpt>
      <trkpt lat="45.24787" lon="4.05702">
        <ele>923.3</ele>
      </trkpt>
      <trkpt lat="45.24779" lon="4.05708">
        <ele>923.4</ele>
      </trkpt>
      <trkpt lat="45.2477" lon="4.05716">
        <ele>923.8</ele>
      </trkpt>
      <trkpt lat="45.24763" lon="4.05724">
        <ele>924.4</ele>
      </trkpt>
      <trkpt lat="45.24758" lon="4.05731">
        <ele>925</ele>
      </trkpt>
      <trkpt lat="45.24754" lon="4.05734">
        <ele>925.2</ele>
      </trkpt>
      <trkpt lat="45.24746" lon="4.05737">
        <ele>925.5</ele>
      </trkpt>
      <trkpt lat="45.24735" lon="4.05741">
        <ele>925.4</ele>
      </trkpt>
      <trkpt lat="45.24725" lon="4.05743">
        <ele>925.3</ele>
      </trkpt>
      <trkpt lat="45.24711" lon="4.05746">
        <ele>925.4</ele>
      </trkpt>
      <trkpt lat="45.24702" lon="4.05748">
        <ele>925.7</ele>
      </trkpt>
      <trkpt lat="45.24695" lon="4.05751">
        <ele>931.7</ele>
      </trkpt>
      <trkpt lat="45.24688" lon="4.05755">
        <ele>931.7</ele>
      </trkpt>
      <trkpt lat="45.24677" lon="4.05759">
        <ele>931.5</ele>
      </trkpt>
      <trkpt lat="45.2467" lon="4.05765">
        <ele>931.6</ele>
      </trkpt>
      <trkpt lat="45.24663" lon="4.05771">
        <ele>932.7</ele>
      </trkpt>
      <trkpt lat="45.24658" lon="4.05777">
        <ele>933.2</ele>
      </trkpt>
      <trkpt lat="45.24655" lon="4.05779">
        <ele>933.4</ele>
      </trkpt>
      <trkpt lat="45.24652" lon="4.0578">
        <ele>933.5</ele>
      </trkpt>
      <trkpt lat="45.24649" lon="4.05779">
        <ele>933.5</ele>
      </trkpt>
      <trkpt lat="45.24649" lon="4.05779">
        <ele>933.5</ele>
      </trkpt>
      <trkpt lat="45.24646" lon="4.05779">
        <ele>933.5</ele>
      </trkpt>
      <trkpt lat="45.24637" lon="4.05778">
        <ele>933.6</ele>
      </trkpt>
      <trkpt lat="45.24629" lon="4.05777">
        <ele>933.6</ele>
      </trkpt>
      <trkpt lat="45.24622" lon="4.05775">
        <ele>933.5</ele>
      </trkpt>
      <trkpt lat="45.24615" lon="4.05773">
        <ele>933.4</ele>
      </trkpt>
      <trkpt lat="45.24605" lon="4.05772">
        <ele>933.3</ele>
      </trkpt>
      <trkpt lat="45.24595" lon="4.05773">
        <ele>933.1</ele>
      </trkpt>
      <trkpt lat="45.24582" lon="4.05775">
        <ele>931.5</ele>
      </trkpt>
      <trkpt lat="45.24575" lon="4.05776">
        <ele>931.5</ele>
      </trkpt>
      <trkpt lat="45.24571" lon="4.05774">
        <ele>931.4</ele>
      </trkpt>
      <trkpt lat="45.24562" lon="4.05768">
        <ele>931.1</ele>
      </trkpt>
      <trkpt lat="45.24557" lon="4.05764">
        <ele>931</ele>
      </trkpt>
      <trkpt lat="45.24553" lon="4.05763">
        <ele>930.9</ele>
      </trkpt>
      <trkpt lat="45.24547" lon="4.05762">
        <ele>930.8</ele>
      </trkpt>
      <trkpt lat="45.24542" lon="4.0576">
        <ele>930.7</ele>
      </trkpt>
      <trkpt lat="45.24535" lon="4.05755">
        <ele>930.5</ele>
      </trkpt>
      <trkpt lat="45.24527" lon="4.05749">
        <ele>928.1</ele>
      </trkpt>
      <trkpt lat="45.24517" lon="4.05744">
        <ele>928.2</ele>
      </trkpt>
      <trkpt lat="45.2451" lon="4.0574">
        <ele>928.3</ele>
      </trkpt>
      <trkpt lat="45.245" lon="4.05737">
        <ele>927</ele>
      </trkpt>
      <trkpt lat="45.24491" lon="4.05737">
        <ele>926.5</ele>
      </trkpt>
      <trkpt lat="45.24484" lon="4.05736">
        <ele>925.9</ele>
      </trkpt>
      <trkpt lat="45.24476" lon="4.05735">
        <ele>925.2</ele>
      </trkpt>
      <trkpt lat="45.24468" lon="4.05734">
        <ele>924.6</ele>
      </trkpt>
      <trkpt lat="45.24461" lon="4.05731">
        <ele>924</ele>
      </trkpt>
      <trkpt lat="45.24453" lon="4.05725">
        <ele>923.6</ele>
      </trkpt>
      <trkpt lat="45.24442" lon="4.05716">
        <ele>923.2</ele>
      </trkpt>
      <trkpt lat="45.24431" lon="4.05707">
        <ele>923</ele>
      </trkpt>
      <trkpt lat="45.24421" lon="4.05702">
        <ele>922.9</ele>
      </trkpt>
      <trkpt lat="45.24412" lon="4.05693">
        <ele>918.2</ele>
      </trkpt>
      <trkpt lat="45.24402" lon="4.05683">
        <ele>918.6</ele>
      </trkpt>
      <trkpt lat="45.24394" lon="4.05674">
        <ele>918.3</ele>
      </trkpt>
      <trkpt lat="45.24382" lon="4.05661">
        <ele>919.1</ele>
      </trkpt>
      <trkpt lat="45.2437" lon="4.0565">
        <ele>918.4</ele>
      </trkpt>
      <trkpt lat="45.24365" lon="4.05643">
        <ele>918.1</ele>
      </trkpt>
      <trkpt lat="45.2436" lon="4.05636">
        <ele>918</ele>
      </trkpt>
      <trkpt lat="45.24356" lon="4.05627">
        <ele>917.9</ele>
      </trkpt>
      <trkpt lat="45.24351" lon="4.05617">
        <ele>917.8</ele>
      </trkpt>
      <trkpt lat="45.2435" lon="4.05613">
        <ele>917.7</ele>
      </trkpt>
      <trkpt lat="45.24351" lon="4.05609">
        <ele>917.7</ele>
      </trkpt>
      <trkpt lat="45.24353" lon="4.05604">
        <ele>917.7</ele>
      </trkpt>
      <trkpt lat="45.24354" lon="4.05598">
        <ele>917.6</ele>
      </trkpt>
      <trkpt lat="45.24356" lon="4.05593">
        <ele>917.6</ele>
      </trkpt>
      <trkpt lat="45.24357" lon="4.05587">
        <ele>917.6</ele>
      </trkpt>
      <trkpt lat="45.24358" lon="4.05572">
        <ele>914.8</ele>
      </trkpt>
      <trkpt lat="45.24359" lon="4.05566">
        <ele>914.6</ele>
      </trkpt>
      <trkpt lat="45.24359" lon="4.05561">
        <ele>914.4</ele>
      </trkpt>
      <trkpt lat="45.24362" lon="4.05557">
        <ele>914.2</ele>
      </trkpt>
      <trkpt lat="45.24372" lon="4.05552">
        <ele>913.8</ele>
      </trkpt>
      <trkpt lat="45.24417" lon="4.05536">
        <ele>910.3</ele>
      </trkpt>
      <trkpt lat="45.2444" lon="4.05525">
        <ele>909.4</ele>
      </trkpt>
      <trkpt lat="45.24447" lon="4.05519">
        <ele>909</ele>
      </trkpt>
      <trkpt lat="45.24449" lon="4.05515">
        <ele>908.8</ele>
      </trkpt>
      <trkpt lat="45.24449" lon="4.05512">
        <ele>908.6</ele>
      </trkpt>
      <trkpt lat="45.24448" lon="4.05506">
        <ele>908.4</ele>
      </trkpt>
      <trkpt lat="45.2444" lon="4.05474">
        <ele>901.5</ele>
      </trkpt>
      <trkpt lat="45.24438" lon="4.05464">
        <ele>901.1</ele>
      </trkpt>
      <trkpt lat="45.24437" lon="4.05452">
        <ele>900.6</ele>
      </trkpt>
      <trkpt lat="45.24436" lon="4.05409">
        <ele>896.1</ele>
      </trkpt>
      <trkpt lat="45.24434" lon="4.05371">
        <ele>893.8</ele>
      </trkpt>
      <trkpt lat="45.24433" lon="4.05356">
        <ele>893.6</ele>
      </trkpt>
      <trkpt lat="45.24431" lon="4.05348">
        <ele>893.8</ele>
      </trkpt>
      <trkpt lat="45.24432" lon="4.05334">
        <ele>894</ele>
      </trkpt>
      <trkpt lat="45.24432" lon="4.0533">
        <ele>891.6</ele>
      </trkpt>
      <trkpt lat="45.24432" lon="4.05327">
        <ele>891.3</ele>
      </trkpt>
      <trkpt lat="45.24432" lon="4.05321">
        <ele>890.8</ele>
      </trkpt>
      <trkpt lat="45.24434" lon="4.05312">
        <ele>889.8</ele>
      </trkpt>
      <trkpt lat="45.24434" lon="4.05307">
        <ele>889.3</ele>
      </trkpt>
      <trkpt lat="45.24436" lon="4.05298">
        <ele>888.7</ele>
      </trkpt>
      <trkpt lat="45.24441" lon="4.05288">
        <ele>888</ele>
      </trkpt>
      <trkpt lat="45.24441" lon="4.05283">
        <ele>888</ele>
      </trkpt>
      <trkpt lat="45.24441" lon="4.05281">
        <ele>888</ele>
      </trkpt>
      <trkpt lat="45.2444" lon="4.0528">
        <ele>888</ele>
      </trkpt>
      <trkpt lat="45.24439" lon="4.05274">
        <ele>888.2</ele>
      </trkpt>
      <trkpt lat="45.24435" lon="4.05267">
        <ele>888.7</ele>
      </trkpt>
      <trkpt lat="45.24433" lon="4.05262">
        <ele>889.3</ele>
      </trkpt>
      <trkpt lat="45.2443" lon="4.05257">
        <ele>889.9</ele>
      </trkpt>
      <trkpt lat="45.24427" lon="4.05247">
        <ele>888.8</ele>
      </trkpt>
      <trkpt lat="45.24426" lon="4.05243">
        <ele>888.6</ele>
      </trkpt>
      <trkpt lat="45.24424" lon="4.05236">
        <ele>887.5</ele>
      </trkpt>
      <trkpt lat="45.24424" lon="4.05232">
        <ele>886.6</ele>
      </trkpt>
      <trkpt lat="45.24421" lon="4.05223">
        <ele>885.5</ele>
      </trkpt>
      <trkpt lat="45.24419" lon="4.05221">
        <ele>885.3</ele>
      </trkpt>
      <trkpt lat="45.24415" lon="4.05213">
        <ele>894.8</ele>
      </trkpt>
      <trkpt lat="45.24412" lon="4.05207">
        <ele>894.5</ele>
      </trkpt>
      <trkpt lat="45.24407" lon="4.05198">
        <ele>894</ele>
      </trkpt>
      <trkpt lat="45.24406" lon="4.05194">
        <ele>893.7</ele>
      </trkpt>
      <trkpt lat="45.24404" lon="4.05187">
        <ele>892.9</ele>
      </trkpt>
      <trkpt lat="45.24399" lon="4.05178">
        <ele>892.5</ele>
      </trkpt>
      <trkpt lat="45.24393" lon="4.05171">
        <ele>893.1</ele>
      </trkpt>
      <trkpt lat="45.24387" lon="4.05163">
        <ele>887.6</ele>
      </trkpt>
      <trkpt lat="45.24382" lon="4.05159">
        <ele>888</ele>
      </trkpt>
      <trkpt lat="45.24376" lon="4.05156">
        <ele>888.5</ele>
      </trkpt>
      <trkpt lat="45.24376" lon="4.05156">
        <ele>888.5</ele>
      </trkpt>
      <trkpt lat="45.24375" lon="4.05155">
        <ele>888.6</ele>
      </trkpt>
      <trkpt lat="45.24368" lon="4.05151">
        <ele>889.1</ele>
      </trkpt>
      <trkpt lat="45.2436" lon="4.05148">
        <ele>889.9</ele>
      </trkpt>
      <trkpt lat="45.24355" lon="4.05144">
        <ele>890.1</ele>
      </trkpt>
      <trkpt lat="45.24352" lon="4.05139">
        <ele>889.9</ele>
      </trkpt>
      <trkpt lat="45.24349" lon="4.05131">
        <ele>889.3</ele>
      </trkpt>
      <trkpt lat="45.24347" lon="4.05124">
        <ele>888.6</ele>
      </trkpt>
      <trkpt lat="45.24344" lon="4.05114">
        <ele>888.1</ele>
      </trkpt>
      <trkpt lat="45.24341" lon="4.05112">
        <ele>888</ele>
      </trkpt>
      <trkpt lat="45.24334" lon="4.05105">
        <ele>887.9</ele>
      </trkpt>
      <trkpt lat="45.2433" lon="4.05101">
        <ele>895</ele>
      </trkpt>
      <trkpt lat="45.24324" lon="4.05094">
        <ele>894</ele>
      </trkpt>
      <trkpt lat="45.24322" lon="4.05089">
        <ele>893.7</ele>
      </trkpt>
      <trkpt lat="45.24319" lon="4.05082">
        <ele>888.1</ele>
      </trkpt>
      <trkpt lat="45.24316" lon="4.05074">
        <ele>887.9</ele>
      </trkpt>
      <trkpt lat="45.24314" lon="4.05068">
        <ele>887.8</ele>
      </trkpt>
      <trkpt lat="45.24312" lon="4.05065">
        <ele>887.7</ele>
      </trkpt>
      <trkpt lat="45.24307" lon="4.05056">
        <ele>887.4</ele>
      </trkpt>
      <trkpt lat="45.24305" lon="4.05052">
        <ele>887.2</ele>
      </trkpt>
      <trkpt lat="45.24303" lon="4.05045">
        <ele>886.8</ele>
      </trkpt>
      <trkpt lat="45.24301" lon="4.05038">
        <ele>886.3</ele>
      </trkpt>
      <trkpt lat="45.243" lon="4.05033">
        <ele>885.9</ele>
      </trkpt>
      <trkpt lat="45.24297" lon="4.05025">
        <ele>885.4</ele>
      </trkpt>
      <trkpt lat="45.24293" lon="4.05009">
        <ele>884.7</ele>
      </trkpt>
      <trkpt lat="45.24291" lon="4.05006">
        <ele>884.7</ele>
      </trkpt>
      <trkpt lat="45.24288" lon="4.05002">
        <ele>884.9</ele>
      </trkpt>
      <trkpt lat="45.24285" lon="4.04997">
        <ele>875.9</ele>
      </trkpt>
      <trkpt lat="45.24279" lon="4.04989">
        <ele>876.1</ele>
      </trkpt>
      <trkpt lat="45.24277" lon="4.04983">
        <ele>875.8</ele>
      </trkpt>
      <trkpt lat="45.24271" lon="4.04975">
        <ele>875.5</ele>
      </trkpt>
      <trkpt lat="45.24265" lon="4.0497">
        <ele>875.3</ele>
      </trkpt>
      <trkpt lat="45.24259" lon="4.04967">
        <ele>875</ele>
      </trkpt>
      <trkpt lat="45.24248" lon="4.04957">
        <ele>879.1</ele>
      </trkpt>
      <trkpt lat="45.24239" lon="4.04951">
        <ele>878.4</ele>
      </trkpt>
      <trkpt lat="45.24229" lon="4.04948">
        <ele>878.5</ele>
      </trkpt>
      <trkpt lat="45.24223" lon="4.04948">
        <ele>878.8</ele>
      </trkpt>
      <trkpt lat="45.24213" lon="4.04949">
        <ele>879.5</ele>
      </trkpt>
      <trkpt lat="45.24208" lon="4.04947">
        <ele>879.6</ele>
      </trkpt>
      <trkpt lat="45.24204" lon="4.04946">
        <ele>879.7</ele>
      </trkpt>
      <trkpt lat="45.24201" lon="4.04942">
        <ele>879.6</ele>
      </trkpt>
      <trkpt lat="45.24199" lon="4.04938">
        <ele>879.4</ele>
      </trkpt>
      <trkpt lat="45.24196" lon="4.04932">
        <ele>879.1</ele>
      </trkpt>
      <trkpt lat="45.24194" lon="4.04924">
        <ele>878.8</ele>
      </trkpt>
      <trkpt lat="45.24191" lon="4.04912">
        <ele>871.7</ele>
      </trkpt>
      <trkpt lat="45.24189" lon="4.04907">
        <ele>871.7</ele>
      </trkpt>
      <trkpt lat="45.24184" lon="4.04897">
        <ele>871.3</ele>
      </trkpt>
      <trkpt lat="45.24173" lon="4.04894">
        <ele>871.7</ele>
      </trkpt>
      <trkpt lat="45.24164" lon="4.0489">
        <ele>876.9</ele>
      </trkpt>
      <trkpt lat="45.24154" lon="4.04887">
        <ele>877</ele>
      </trkpt>
      <trkpt lat="45.24152" lon="4.04887">
        <ele>877</ele>
      </trkpt>
      <trkpt lat="45.24148" lon="4.04886">
        <ele>877.2</ele>
      </trkpt>
      <trkpt lat="45.24137" lon="4.04887">
        <ele>877.8</ele>
      </trkpt>
      <trkpt lat="45.2413" lon="4.04889">
        <ele>878.3</ele>
      </trkpt>
      <trkpt lat="45.24119" lon="4.04892">
        <ele>879.4</ele>
      </trkpt>
      <trkpt lat="45.24106" lon="4.04898">
        <ele>881.1</ele>
      </trkpt>
      <trkpt lat="45.24097" lon="4.049">
        <ele>882.6</ele>
      </trkpt>
      <trkpt lat="45.24079" lon="4.04905">
        <ele>887.8</ele>
      </trkpt>
      <trkpt lat="45.24065" lon="4.04909">
        <ele>887.7</ele>
      </trkpt>
      <trkpt lat="45.2405" lon="4.04911">
        <ele>887.8</ele>
      </trkpt>
      <trkpt lat="45.24031" lon="4.04913">
        <ele>888.8</ele>
      </trkpt>
      <trkpt lat="45.24022" lon="4.04914">
        <ele>889.6</ele>
      </trkpt>
      <trkpt lat="45.24003" lon="4.04914">
        <ele>892.7</ele>
      </trkpt>
      <trkpt lat="45.23992" lon="4.04913">
        <ele>892.7</ele>
      </trkpt>
      <trkpt lat="45.23985" lon="4.04911">
        <ele>892</ele>
      </trkpt>
      <trkpt lat="45.23978" lon="4.0491">
        <ele>891.6</ele>
      </trkpt>
      <trkpt lat="45.23965" lon="4.04906">
        <ele>891.1</ele>
      </trkpt>
      <trkpt lat="45.23954" lon="4.04899">
        <ele>890.8</ele>
      </trkpt>
      <trkpt lat="45.23944" lon="4.0489">
        <ele>890.5</ele>
      </trkpt>
      <trkpt lat="45.23936" lon="4.04884">
        <ele>890.3</ele>
      </trkpt>
      <trkpt lat="45.2392" lon="4.0488">
        <ele>890.1</ele>
      </trkpt>
      <trkpt lat="45.23909" lon="4.0488">
        <ele>892.8</ele>
      </trkpt>
      <trkpt lat="45.23903" lon="4.0488">
        <ele>892.9</ele>
      </trkpt>
      <trkpt lat="45.23888" lon="4.04882">
        <ele>893.5</ele>
      </trkpt>
      <trkpt lat="45.23886" lon="4.04881">
        <ele>893.5</ele>
      </trkpt>
      <trkpt lat="45.2388" lon="4.04881">
        <ele>893.7</ele>
      </trkpt>
      <trkpt lat="45.23874" lon="4.04881">
        <ele>894</ele>
      </trkpt>
      <trkpt lat="45.2385" lon="4.04883">
        <ele>895.4</ele>
      </trkpt>
      <trkpt lat="45.23834" lon="4.04884">
        <ele>896.1</ele>
      </trkpt>
      <trkpt lat="45.23827" lon="4.04884">
        <ele>901.7</ele>
      </trkpt>
      <trkpt lat="45.23823" lon="4.04881">
        <ele>901.5</ele>
      </trkpt>
      <trkpt lat="45.23816" lon="4.04875">
        <ele>901</ele>
      </trkpt>
      <trkpt lat="45.23812" lon="4.04869">
        <ele>900.4</ele>
      </trkpt>
      <trkpt lat="45.23804" lon="4.04863">
        <ele>900.3</ele>
      </trkpt>
      <trkpt lat="45.23794" lon="4.0486">
        <ele>900.6</ele>
      </trkpt>
      <trkpt lat="45.2379" lon="4.04857">
        <ele>900.6</ele>
      </trkpt>
      <trkpt lat="45.23786" lon="4.04852">
        <ele>900.5</ele>
      </trkpt>
      <trkpt lat="45.23779" lon="4.0485">
        <ele>900.5</ele>
      </trkpt>
      <trkpt lat="45.23774" lon="4.04852">
        <ele>900.7</ele>
      </trkpt>
      <trkpt lat="45.23766" lon="4.04848">
        <ele>900.3</ele>
      </trkpt>
      <trkpt lat="45.23754" lon="4.04839">
        <ele>898.5</ele>
      </trkpt>
      <trkpt lat="45.23751" lon="4.04836">
        <ele>897.6</ele>
      </trkpt>
      <trkpt lat="45.23749" lon="4.04833">
        <ele>896.9</ele>
      </trkpt>
      <trkpt lat="45.23745" lon="4.04829">
        <ele>896.7</ele>
      </trkpt>
      <trkpt lat="45.2374" lon="4.04828">
        <ele>896.7</ele>
      </trkpt>
      <trkpt lat="45.23734" lon="4.04826">
        <ele>896.7</ele>
      </trkpt>
      <trkpt lat="45.23729" lon="4.0482">
        <ele>896.6</ele>
      </trkpt>
      <trkpt lat="45.23725" lon="4.04811">
        <ele>896.2</ele>
      </trkpt>
      <trkpt lat="45.23724" lon="4.04807">
        <ele>896</ele>
      </trkpt>
      <trkpt lat="45.23718" lon="4.048">
        <ele>895.7</ele>
      </trkpt>
      <trkpt lat="45.23708" lon="4.04796">
        <ele>895.9</ele>
      </trkpt>
      <trkpt lat="45.23702" lon="4.04795">
        <ele>896.2</ele>
      </trkpt>
      <trkpt lat="45.23695" lon="4.04797">
        <ele>896.8</ele>
      </trkpt>
      <trkpt lat="45.23688" lon="4.04799">
        <ele>897.6</ele>
      </trkpt>
      <trkpt lat="45.23684" lon="4.04799">
        <ele>897.8</ele>
      </trkpt>
      <trkpt lat="45.23679" lon="4.04797">
        <ele>897.7</ele>
      </trkpt>
      <trkpt lat="45.23668" lon="4.04788">
        <ele>896.5</ele>
      </trkpt>
      <trkpt lat="45.23666" lon="4.04783">
        <ele>897.6</ele>
      </trkpt>
      <trkpt lat="45.23661" lon="4.04778">
        <ele>896.6</ele>
      </trkpt>
      <trkpt lat="45.23656" lon="4.04771">
        <ele>895.6</ele>
      </trkpt>
      <trkpt lat="45.23652" lon="4.04769">
        <ele>895.5</ele>
      </trkpt>
      <trkpt lat="45.23648" lon="4.04768">
        <ele>895.6</ele>
      </trkpt>
      <trkpt lat="45.23643" lon="4.04767">
        <ele>895.7</ele>
      </trkpt>
      <trkpt lat="45.23626" lon="4.04768">
        <ele>896</ele>
      </trkpt>
      <trkpt lat="45.23621" lon="4.04767">
        <ele>895.8</ele>
      </trkpt>
      <trkpt lat="45.23615" lon="4.04765">
        <ele>895.4</ele>
      </trkpt>
      <trkpt lat="45.23597" lon="4.04756">
        <ele>892.4</ele>
      </trkpt>
      <trkpt lat="45.23591" lon="4.04755">
        <ele>891</ele>
      </trkpt>
      <trkpt lat="45.23585" lon="4.04755">
        <ele>890</ele>
      </trkpt>
      <trkpt lat="45.23579" lon="4.04759">
        <ele>889.8</ele>
      </trkpt>
      <trkpt lat="45.23567" lon="4.04766">
        <ele>891.1</ele>
      </trkpt>
      <trkpt lat="45.23562" lon="4.04769">
        <ele>891.5</ele>
      </trkpt>
      <trkpt lat="45.23551" lon="4.04776">
        <ele>892.1</ele>
      </trkpt>
      <trkpt lat="45.23543" lon="4.0478">
        <ele>892.1</ele>
      </trkpt>
      <trkpt lat="45.23523" lon="4.04788">
        <ele>891.8</ele>
      </trkpt>
      <trkpt lat="45.235" lon="4.04796">
        <ele>886.6</ele>
      </trkpt>
      <trkpt lat="45.23488" lon="4.04801">
        <ele>886.8</ele>
      </trkpt>
      <trkpt lat="45.23484" lon="4.04802">
        <ele>886.7</ele>
      </trkpt>
      <trkpt lat="45.2348" lon="4.04803">
        <ele>886.5</ele>
      </trkpt>
      <trkpt lat="45.23473" lon="4.04804">
        <ele>886.2</ele>
      </trkpt>
      <trkpt lat="45.23463" lon="4.04809">
        <ele>885.8</ele>
      </trkpt>
      <trkpt lat="45.23452" lon="4.04817">
        <ele>885.4</ele>
      </trkpt>
      <trkpt lat="45.23443" lon="4.04821">
        <ele>885.2</ele>
      </trkpt>
      <trkpt lat="45.23434" lon="4.04823">
        <ele>884.9</ele>
      </trkpt>
      <trkpt lat="45.23429" lon="4.04826">
        <ele>884.9</ele>
      </trkpt>
      <trkpt lat="45.23404" lon="4.04842">
        <ele>884.7</ele>
      </trkpt>
      <trkpt lat="45.23398" lon="4.04848">
        <ele>884.5</ele>
      </trkpt>
      <trkpt lat="45.23393" lon="4.04853">
        <ele>884.4</ele>
      </trkpt>
      <trkpt lat="45.23388" lon="4.04856">
        <ele>884.1</ele>
      </trkpt>
      <trkpt lat="45.23383" lon="4.04858">
        <ele>883.9</ele>
      </trkpt>
      <trkpt lat="45.23378" lon="4.0486">
        <ele>883.5</ele>
      </trkpt>
      <trkpt lat="45.23367" lon="4.04866">
        <ele>882.8</ele>
      </trkpt>
      <trkpt lat="45.23365" lon="4.04867">
        <ele>882.8</ele>
      </trkpt>
      <trkpt lat="45.23352" lon="4.04872">
        <ele>882.1</ele>
      </trkpt>
      <trkpt lat="45.23337" lon="4.0488">
        <ele>882.2</ele>
      </trkpt>
      <trkpt lat="45.23323" lon="4.04891">
        <ele>873</ele>
      </trkpt>
      <trkpt lat="45.23314" lon="4.049">
        <ele>873.4</ele>
      </trkpt>
      <trkpt lat="45.23311" lon="4.04904">
        <ele>873.3</ele>
      </trkpt>
      <trkpt lat="45.23303" lon="4.04922">
        <ele>877.6</ele>
      </trkpt>
      <trkpt lat="45.23295" lon="4.0494">
        <ele>876.5</ele>
      </trkpt>
      <trkpt lat="45.23294" lon="4.04947">
        <ele>876.4</ele>
      </trkpt>
      <trkpt lat="45.23293" lon="4.04958">
        <ele>876.7</ele>
      </trkpt>
      <trkpt lat="45.23292" lon="4.04966">
        <ele>876.8</ele>
      </trkpt>
      <trkpt lat="45.23291" lon="4.04973">
        <ele>876.8</ele>
      </trkpt>
      <trkpt lat="45.23283" lon="4.04988">
        <ele>875.7</ele>
      </trkpt>
      <trkpt lat="45.23279" lon="4.04995">
        <ele>874.9</ele>
      </trkpt>
      <trkpt lat="45.23274" lon="4.05004">
        <ele>875.7</ele>
      </trkpt>
      <trkpt lat="45.23273" lon="4.05011">
        <ele>875.8</ele>
      </trkpt>
      <trkpt lat="45.23275" lon="4.05038">
        <ele>877.6</ele>
      </trkpt>
      <trkpt lat="45.23276" lon="4.05052">
        <ele>877.8</ele>
      </trkpt>
      <trkpt lat="45.23281" lon="4.05077">
        <ele>878</ele>
      </trkpt>
      <trkpt lat="45.23282" lon="4.05096">
        <ele>875.9</ele>
      </trkpt>
      <trkpt lat="45.23282" lon="4.05108">
        <ele>875.7</ele>
      </trkpt>
      <trkpt lat="45.23279" lon="4.05122">
        <ele>874.9</ele>
      </trkpt>
      <trkpt lat="45.2328" lon="4.05133">
        <ele>874.3</ele>
      </trkpt>
      <trkpt lat="45.2328" lon="4.05137">
        <ele>874.1</ele>
      </trkpt>
      <trkpt lat="45.23283" lon="4.05146">
        <ele>873.9</ele>
      </trkpt>
      <trkpt lat="45.23277" lon="4.05138">
        <ele>873.7</ele>
      </trkpt>
      <trkpt lat="45.23283" lon="4.05146">
        <ele>873.9</ele>
      </trkpt>
      <trkpt lat="45.23298" lon="4.05165">
        <ele>875.4</ele>
      </trkpt>
      <trkpt lat="45.23312" lon="4.05179">
        <ele>870.2</ele>
      </trkpt>
      <trkpt lat="45.23317" lon="4.05181">
        <ele>870.9</ele>
      </trkpt>
      <trkpt lat="45.2332" lon="4.05182">
        <ele>871.5</ele>
      </trkpt>
      <trkpt lat="45.23326" lon="4.05182">
        <ele>872.3</ele>
      </trkpt>
      <trkpt lat="45.2333" lon="4.05184">
        <ele>872.2</ele>
      </trkpt>
      <trkpt lat="45.23339" lon="4.05194">
        <ele>878.4</ele>
      </trkpt>
      <trkpt lat="45.23353" lon="4.05209">
        <ele>877.2</ele>
      </trkpt>
      <trkpt lat="45.23372" lon="4.05232">
        <ele>876.3</ele>
      </trkpt>
      <trkpt lat="45.23377" lon="4.05238">
        <ele>876.2</ele>
      </trkpt>
      <trkpt lat="45.23379" lon="4.05241">
        <ele>876.2</ele>
      </trkpt>
      <trkpt lat="45.23382" lon="4.05246">
        <ele>876.2</ele>
      </trkpt>
      <trkpt lat="45.23389" lon="4.05255">
        <ele>866.5</ele>
      </trkpt>
      <trkpt lat="45.23391" lon="4.05257">
        <ele>866.7</ele>
      </trkpt>
      <trkpt lat="45.23395" lon="4.05259">
        <ele>867.2</ele>
      </trkpt>
      <trkpt lat="45.23402" lon="4.0526">
        <ele>868.6</ele>
      </trkpt>
      <trkpt lat="45.23408" lon="4.05263">
        <ele>869.1</ele>
      </trkpt>
      <trkpt lat="45.23413" lon="4.05265">
        <ele>869.1</ele>
      </trkpt>
      <trkpt lat="45.23426" lon="4.05271">
        <ele>872.2</ele>
      </trkpt>
      <trkpt lat="45.23435" lon="4.05273">
        <ele>872.1</ele>
      </trkpt>
      <trkpt lat="45.23444" lon="4.05273">
        <ele>872.2</ele>
      </trkpt>
      <trkpt lat="45.23451" lon="4.05273">
        <ele>872.4</ele>
      </trkpt>
      <trkpt lat="45.23462" lon="4.05275">
        <ele>872.9</ele>
      </trkpt>
      <trkpt lat="45.23471" lon="4.05276">
        <ele>873.4</ele>
      </trkpt>
      <trkpt lat="45.23482" lon="4.05276">
        <ele>874.1</ele>
      </trkpt>
      <trkpt lat="45.23483" lon="4.05277">
        <ele>874.1</ele>
      </trkpt>
      <trkpt lat="45.23486" lon="4.0528">
        <ele>873.9</ele>
      </trkpt>
      <trkpt lat="45.23491" lon="4.05283">
        <ele>873.7</ele>
      </trkpt>
      <trkpt lat="45.23499" lon="4.05287">
        <ele>873.4</ele>
      </trkpt>
      <trkpt lat="45.23505" lon="4.05293">
        <ele>877.3</ele>
      </trkpt>
      <trkpt lat="45.2351" lon="4.053">
        <ele>876.5</ele>
      </trkpt>
      <trkpt lat="45.23514" lon="4.05305">
        <ele>876.1</ele>
      </trkpt>
      <trkpt lat="45.23521" lon="4.05311">
        <ele>875.8</ele>
      </trkpt>
      <trkpt lat="45.23529" lon="4.05317">
        <ele>876</ele>
      </trkpt>
      <trkpt lat="45.23539" lon="4.05322">
        <ele>876.4</ele>
      </trkpt>
      <trkpt lat="45.2355" lon="4.05327">
        <ele>876.8</ele>
      </trkpt>
      <trkpt lat="45.23557" lon="4.05331">
        <ele>876.9</ele>
      </trkpt>
      <trkpt lat="45.23562" lon="4.05336">
        <ele>871.5</ele>
      </trkpt>
      <trkpt lat="45.23563" lon="4.05338">
        <ele>871.7</ele>
      </trkpt>
      <trkpt lat="45.23568" lon="4.05343">
        <ele>871.9</ele>
      </trkpt>
      <trkpt lat="45.23574" lon="4.05354">
        <ele>871.3</ele>
      </trkpt>
      <trkpt lat="45.23579" lon="4.05362">
        <ele>870.6</ele>
      </trkpt>
      <trkpt lat="45.23582" lon="4.05368">
        <ele>870.1</ele>
      </trkpt>
      <trkpt lat="45.23589" lon="4.05373">
        <ele>874.1</ele>
      </trkpt>
      <trkpt lat="45.23599" lon="4.05382">
        <ele>873.7</ele>
      </trkpt>
      <trkpt lat="45.23604" lon="4.05387">
        <ele>873.5</ele>
      </trkpt>
      <trkpt lat="45.23607" lon="4.05392">
        <ele>873.4</ele>
      </trkpt>
      <trkpt lat="45.23611" lon="4.05397">
        <ele>873.4</ele>
      </trkpt>
      <trkpt lat="45.23616" lon="4.05402">
        <ele>873.4</ele>
      </trkpt>
      <trkpt lat="45.23623" lon="4.05409">
        <ele>873.7</ele>
      </trkpt>
      <trkpt lat="45.2363" lon="4.05415">
        <ele>874</ele>
      </trkpt>
      <trkpt lat="45.23637" lon="4.05422">
        <ele>869.2</ele>
      </trkpt>
      <trkpt lat="45.23642" lon="4.05422">
        <ele>869.7</ele>
      </trkpt>
      <trkpt lat="45.2365" lon="4.05424">
        <ele>870.6</ele>
      </trkpt>
      <trkpt lat="45.23656" lon="4.05424">
        <ele>871.5</ele>
      </trkpt>
      <trkpt lat="45.23667" lon="4.05424">
        <ele>874.1</ele>
      </trkpt>
      <trkpt lat="45.23684" lon="4.05423">
        <ele>873.3</ele>
      </trkpt>
      <trkpt lat="45.23693" lon="4.05424">
        <ele>873.1</ele>
      </trkpt>
      <trkpt lat="45.23697" lon="4.05426">
        <ele>873</ele>
      </trkpt>
      <trkpt lat="45.2371" lon="4.05432">
        <ele>873</ele>
      </trkpt>
      <trkpt lat="45.23731" lon="4.05445">
        <ele>872.9</ele>
      </trkpt>
      <trkpt lat="45.23735" lon="4.05448">
        <ele>872.8</ele>
      </trkpt>
      <trkpt lat="45.23743" lon="4.05455">
        <ele>873.98</ele>
      </trkpt>
      <trkpt lat="45.23751" lon="4.0546">
        <ele>873.5</ele>
      </trkpt>
      <trkpt lat="45.23764" lon="4.05462">
        <ele>874.94</ele>
      </trkpt>
      <trkpt lat="45.23775" lon="4.05465">
        <ele>873.5</ele>
      </trkpt>
      <trkpt lat="45.23786" lon="4.05469">
        <ele>873.98</ele>
      </trkpt>
      <trkpt lat="45.23794" lon="4.0547">
        <ele>875.42</ele>
      </trkpt>
      <trkpt lat="45.23806" lon="4.05472">
        <ele>875.42</ele>
      </trkpt>
      <trkpt lat="45.23821" lon="4.05472">
        <ele>875.42</ele>
      </trkpt>
      <trkpt lat="45.23823" lon="4.05472">
        <ele>876.38</ele>
      </trkpt>
      <trkpt lat="45.23829" lon="4.0547">
        <ele>876.86</ele>
      </trkpt>
      <trkpt lat="45.23837" lon="4.0547">
        <ele>877.82</ele>
      </trkpt>
      <trkpt lat="45.2385" lon="4.05476">
        <ele>879.74</ele>
      </trkpt>
      <trkpt lat="45.23857" lon="4.05481">
        <ele>878.3</ele>
      </trkpt>
      <trkpt lat="45.23866" lon="4.05487">
        <ele>877.82</ele>
      </trkpt>
      <trkpt lat="45.23872" lon="4.055">
        <ele>874.94</ele>
      </trkpt>
      <trkpt lat="45.23878" lon="4.05511">
        <ele>874.46</ele>
      </trkpt>
      <trkpt lat="45.23883" lon="4.05518">
        <ele>873.5</ele>
      </trkpt>
      <trkpt lat="45.23886" lon="4.05523">
        <ele>873.98</ele>
      </trkpt>
      <trkpt lat="45.23893" lon="4.05537">
        <ele>872.53</ele>
      </trkpt>
      <trkpt lat="45.23901" lon="4.05547">
        <ele>871.09</ele>
      </trkpt>
      <trkpt lat="45.23905" lon="4.0555">
        <ele>870.13</ele>
      </trkpt>
      <trkpt lat="45.23924" lon="4.05565">
        <ele>866.29</ele>
      </trkpt>
      <trkpt lat="45.23935" lon="4.0558">
        <ele>864.84</ele>
      </trkpt>
      <trkpt lat="45.23939" lon="4.05587">
        <ele>864.84</ele>
      </trkpt>
      <trkpt lat="45.23955" lon="4.05608">
        <ele>863.4</ele>
      </trkpt>
      <trkpt lat="45.23968" lon="4.05622">
        <ele>861</ele>
      </trkpt>
      <trkpt lat="45.23975" lon="4.0563">
        <ele>860.52</ele>
      </trkpt>
      <trkpt lat="45.23985" lon="4.05646">
        <ele>857.63</ele>
      </trkpt>
      <trkpt lat="45.23988" lon="4.05655">
        <ele>858.59</ele>
      </trkpt>
      <trkpt lat="45.23989" lon="4.05658">
        <ele>858.59</ele>
      </trkpt>
      <trkpt lat="45.23998" lon="4.05667">
        <ele>858.11</ele>
      </trkpt>
      <trkpt lat="45.24004" lon="4.05676">
        <ele>858.59</ele>
      </trkpt>
      <trkpt lat="45.24012" lon="4.05689">
        <ele>860.04</ele>
      </trkpt>
      <trkpt lat="45.24021" lon="4.05703">
        <ele>861.48</ele>
      </trkpt>
      <trkpt lat="45.24021" lon="4.05704">
        <ele>861.48</ele>
      </trkpt>
      <trkpt lat="45.24026" lon="4.05708">
        <ele>861.96</ele>
      </trkpt>
      <trkpt lat="45.24038" lon="4.05724">
        <ele>859.08</ele>
      </trkpt>
      <trkpt lat="45.24052" lon="4.05745">
        <ele>858.59</ele>
      </trkpt>
      <trkpt lat="45.24057" lon="4.05752">
        <ele>858.59</ele>
      </trkpt>
      <trkpt lat="45.2407" lon="4.05774">
        <ele>857.63</ele>
      </trkpt>
      <trkpt lat="45.24081" lon="4.05796">
        <ele>856.67</ele>
      </trkpt>
      <trkpt lat="45.24096" lon="4.05807">
        <ele>855.71</ele>
      </trkpt>
      <trkpt lat="45.2411" lon="4.05828">
        <ele>855.71</ele>
      </trkpt>
      <trkpt lat="45.24125" lon="4.05847">
        <ele>856.67</ele>
      </trkpt>
      <trkpt lat="45.24126" lon="4.05848">
        <ele>857.15</ele>
      </trkpt>
      <trkpt lat="45.24133" lon="4.05864">
        <ele>856.67</ele>
      </trkpt>
      <trkpt lat="45.24137" lon="4.05888">
        <ele>856.19</ele>
      </trkpt>
      <trkpt lat="45.24139" lon="4.05897">
        <ele>856.19</ele>
      </trkpt>
      <trkpt lat="45.24141" lon="4.05898">
        <ele>856.19</ele>
      </trkpt>
      <trkpt lat="45.24145" lon="4.05916">
        <ele>855.23</ele>
      </trkpt>
      <trkpt lat="45.24157" lon="4.05938">
        <ele>853.79</ele>
      </trkpt>
      <trkpt lat="45.24177" lon="4.05951">
        <ele>849.94</ele>
      </trkpt>
      <trkpt lat="45.2419" lon="4.05958">
        <ele>847.54</ele>
      </trkpt>
      <trkpt lat="45.24196" lon="4.05966">
        <ele>848.02</ele>
      </trkpt>
      <trkpt lat="45.24209" lon="4.05985">
        <ele>848.02</ele>
      </trkpt>
      <trkpt lat="45.24223" lon="4.06009">
        <ele>847.54</ele>
      </trkpt>
      <trkpt lat="45.24235" lon="4.06028">
        <ele>848.02</ele>
      </trkpt>
      <trkpt lat="45.24245" lon="4.06045">
        <ele>848.02</ele>
      </trkpt>
      <trkpt lat="45.24248" lon="4.06054">
        <ele>847.06</ele>
      </trkpt>
      <trkpt lat="45.24253" lon="4.06082">
        <ele>845.62</ele>
      </trkpt>
      <trkpt lat="45.24257" lon="4.06105">
        <ele>846.1</ele>
      </trkpt>
      <trkpt lat="45.24267" lon="4.06127">
        <ele>847.06</ele>
      </trkpt>
      <trkpt lat="45.24272" lon="4.06147">
        <ele>847.06</ele>
      </trkpt>
      <trkpt lat="45.24277" lon="4.06174">
        <ele>847.54</ele>
      </trkpt>
      <trkpt lat="45.2428" lon="4.06195">
        <ele>850.9</ele>
      </trkpt>
      <trkpt lat="45.24282" lon="4.06205">
        <ele>852.35</ele>
      </trkpt>
      <trkpt lat="45.24282" lon="4.06205">
        <ele>852.35</ele>
      </trkpt>
      <trkpt lat="45.24288" lon="4.06229">
        <ele>854.27</ele>
      </trkpt>
      <trkpt lat="45.24291" lon="4.06241">
        <ele>855.23</ele>
      </trkpt>
      <trkpt lat="45.24297" lon="4.06264">
        <ele>854.75</ele>
      </trkpt>
      <trkpt lat="45.24312" lon="4.06275">
        <ele>857.15</ele>
      </trkpt>
      <trkpt lat="45.24326" lon="4.06283">
        <ele>856.67</ele>
      </trkpt>
      <trkpt lat="45.24346" lon="4.063">
        <ele>853.79</ele>
      </trkpt>
      <trkpt lat="45.24357" lon="4.06312">
        <ele>852.35</ele>
      </trkpt>
      <trkpt lat="45.24362" lon="4.06344">
        <ele>849.94</ele>
      </trkpt>
      <trkpt lat="45.24365" lon="4.06356">
        <ele>849.46</ele>
      </trkpt>
      <trkpt lat="45.24376" lon="4.06374">
        <ele>848.02</ele>
      </trkpt>
      <trkpt lat="45.2438" lon="4.06385">
        <ele>850.42</ele>
      </trkpt>
      <trkpt lat="45.24389" lon="4.06407">
        <ele>850.42</ele>
      </trkpt>
      <trkpt lat="45.24389" lon="4.06407">
        <ele>849.9</ele>
      </trkpt>
      <trkpt lat="45.24392" lon="4.06413">
        <ele>850</ele>
      </trkpt>
      <trkpt lat="45.24399" lon="4.06428">
        <ele>845.8</ele>
      </trkpt>
      <trkpt lat="45.24406" lon="4.06442">
        <ele>844.9</ele>
      </trkpt>
      <trkpt lat="45.24413" lon="4.06459">
        <ele>843.7</ele>
      </trkpt>
      <trkpt lat="45.24416" lon="4.06472">
        <ele>843.1</ele>
      </trkpt>
      <trkpt lat="45.24416" lon="4.06479">
        <ele>843</ele>
      </trkpt>
      <trkpt lat="45.24414" lon="4.06485">
        <ele>843</ele>
      </trkpt>
      <trkpt lat="45.24409" lon="4.06492">
        <ele>843</ele>
      </trkpt>
      <trkpt lat="45.24403" lon="4.06499">
        <ele>842.7</ele>
      </trkpt>
      <trkpt lat="45.24402" lon="4.065">
        <ele>840.2</ele>
      </trkpt>
      <trkpt lat="45.244" lon="4.06504">
        <ele>839.7</ele>
      </trkpt>
      <trkpt lat="45.24399" lon="4.06514">
        <ele>838.7</ele>
      </trkpt>
      <trkpt lat="45.24399" lon="4.06523">
        <ele>838</ele>
      </trkpt>
      <trkpt lat="45.244" lon="4.06531">
        <ele>837.6</ele>
      </trkpt>
      <trkpt lat="45.24399" lon="4.06536">
        <ele>837.2</ele>
      </trkpt>
      <trkpt lat="45.24397" lon="4.06541">
        <ele>837</ele>
      </trkpt>
      <trkpt lat="45.24396" lon="4.06538">
        <ele>837</ele>
      </trkpt>
      <trkpt lat="45.24391" lon="4.06529">
        <ele>836.9</ele>
      </trkpt>
      <trkpt lat="45.24388" lon="4.06525">
        <ele>836.9</ele>
      </trkpt>
      <trkpt lat="45.24371" lon="4.06502">
        <ele>835.7</ele>
      </trkpt>
      <trkpt lat="45.24356" lon="4.0648">
        <ele>838.3</ele>
      </trkpt>
      <trkpt lat="45.24341" lon="4.06461">
        <ele>838.8</ele>
      </trkpt>
      <trkpt lat="45.24325" lon="4.06439">
        <ele>831.8</ele>
      </trkpt>
      <trkpt lat="45.24316" lon="4.06426">
        <ele>832.2</ele>
      </trkpt>
      <trkpt lat="45.2431" lon="4.06421">
        <ele>831.5</ele>
      </trkpt>
      <trkpt lat="45.24302" lon="4.06417">
        <ele>835.8</ele>
      </trkpt>
      <trkpt lat="45.24294" lon="4.06414">
        <ele>835.1</ele>
      </trkpt>
      <trkpt lat="45.24284" lon="4.06405">
        <ele>834.2</ele>
      </trkpt>
      <trkpt lat="45.24271" lon="4.06393">
        <ele>833.6</ele>
      </trkpt>
      <trkpt lat="45.2426" lon="4.06386">
        <ele>833.5</ele>
      </trkpt>
      <trkpt lat="45.24246" lon="4.0638">
        <ele>824.6</ele>
      </trkpt>
      <trkpt lat="45.24239" lon="4.06384">
        <ele>824</ele>
      </trkpt>
      <trkpt lat="45.24232" lon="4.06385">
        <ele>823.5</ele>
      </trkpt>
      <trkpt lat="45.24223" lon="4.06386">
        <ele>822.8</ele>
      </trkpt>
      <trkpt lat="45.24215" lon="4.06384">
        <ele>822.1</ele>
      </trkpt>
      <trkpt lat="45.24206" lon="4.06382">
        <ele>821.3</ele>
      </trkpt>
      <trkpt lat="45.24198" lon="4.0638">
        <ele>820.7</ele>
      </trkpt>
      <trkpt lat="45.24191" lon="4.06381">
        <ele>819.9</ele>
      </trkpt>
      <trkpt lat="45.24182" lon="4.06382">
        <ele>819</ele>
      </trkpt>
      <trkpt lat="45.24174" lon="4.06385">
        <ele>818.1</ele>
      </trkpt>
      <trkpt lat="45.24167" lon="4.06388">
        <ele>817.3</ele>
      </trkpt>
      <trkpt lat="45.24164" lon="4.06392">
        <ele>808.2</ele>
      </trkpt>
      <trkpt lat="45.24159" lon="4.06401">
        <ele>808</ele>
      </trkpt>
      <trkpt lat="45.24156" lon="4.06404">
        <ele>807.9</ele>
      </trkpt>
      <trkpt lat="45.2415" lon="4.06404">
        <ele>807.5</ele>
      </trkpt>
      <trkpt lat="45.24146" lon="4.06405">
        <ele>807.3</ele>
      </trkpt>
      <trkpt lat="45.24142" lon="4.06409">
        <ele>806.9</ele>
      </trkpt>
      <trkpt lat="45.24136" lon="4.06414">
        <ele>806.3</ele>
      </trkpt>
      <trkpt lat="45.24131" lon="4.06418">
        <ele>799.6</ele>
      </trkpt>
      <trkpt lat="45.24125" lon="4.06421">
        <ele>798.7</ele>
      </trkpt>
      <trkpt lat="45.24119" lon="4.06425">
        <ele>798</ele>
      </trkpt>
      <trkpt lat="45.2412" lon="4.06428">
        <ele>797.9</ele>
      </trkpt>
      <trkpt lat="45.24123" lon="4.06438">
        <ele>797.6</ele>
      </trkpt>
      <trkpt lat="45.24128" lon="4.06456">
        <ele>796.7</ele>
      </trkpt>
      <trkpt lat="45.24133" lon="4.06472">
        <ele>795.8</ele>
      </trkpt>
      <trkpt lat="45.2414" lon="4.06492">
        <ele>795.5</ele>
      </trkpt>
      <trkpt lat="45.24147" lon="4.0651">
        <ele>789.4</ele>
      </trkpt>
      <trkpt lat="45.24153" lon="4.06526">
        <ele>788.3</ele>
      </trkpt>
      <trkpt lat="45.24159" lon="4.06542">
        <ele>787</ele>
      </trkpt>
      <trkpt lat="45.24164" lon="4.06555">
        <ele>786.6</ele>
      </trkpt>
      <trkpt lat="45.24169" lon="4.0657">
        <ele>794</ele>
      </trkpt>
      <trkpt lat="45.24172" lon="4.06584">
        <ele>789.2</ele>
      </trkpt>
      <trkpt lat="45.24173" lon="4.066">
        <ele>790.9</ele>
      </trkpt>
      <trkpt lat="45.24173" lon="4.06616">
        <ele>791.1</ele>
      </trkpt>
      <trkpt lat="45.24172" lon="4.06631">
        <ele>790</ele>
      </trkpt>
      <trkpt lat="45.24173" lon="4.06652">
        <ele>786.2</ele>
      </trkpt>
      <trkpt lat="45.24173" lon="4.06675">
        <ele>781.7</ele>
      </trkpt>
      <trkpt lat="45.24173" lon="4.06693">
        <ele>783.4</ele>
      </trkpt>
      <trkpt lat="45.24174" lon="4.06719">
        <ele>782.6</ele>
      </trkpt>
      <trkpt lat="45.24174" lon="4.06735">
        <ele>780</ele>
      </trkpt>
      <trkpt lat="45.24174" lon="4.06754">
        <ele>775.3</ele>
      </trkpt>
      <trkpt lat="45.24174" lon="4.06771">
        <ele>776</ele>
      </trkpt>
      <trkpt lat="45.24174" lon="4.06787">
        <ele>775.6</ele>
      </trkpt>
      <trkpt lat="45.24175" lon="4.06808">
        <ele>773.6</ele>
      </trkpt>
      <trkpt lat="45.24177" lon="4.06828">
        <ele>770.2</ele>
      </trkpt>
      <trkpt lat="45.24179" lon="4.0685">
        <ele>765.7</ele>
      </trkpt>
      <trkpt lat="45.24181" lon="4.06867">
        <ele>764.7</ele>
      </trkpt>
      <trkpt lat="45.24183" lon="4.06878">
        <ele>763.7</ele>
      </trkpt>
      <trkpt lat="45.24187" lon="4.06889">
        <ele>762.7</ele>
      </trkpt>
      <trkpt lat="45.24194" lon="4.06898">
        <ele>762.4</ele>
      </trkpt>
      <trkpt lat="45.24201" lon="4.06906">
        <ele>762.8</ele>
      </trkpt>
      <trkpt lat="45.24209" lon="4.06912">
        <ele>763.4</ele>
      </trkpt>
      <trkpt lat="45.24214" lon="4.0692">
        <ele>756.5</ele>
      </trkpt>
      <trkpt lat="45.24219" lon="4.0693">
        <ele>756.7</ele>
      </trkpt>
      <trkpt lat="45.24223" lon="4.06939">
        <ele>756.5</ele>
      </trkpt>
      <trkpt lat="45.24229" lon="4.0695">
        <ele>756.1</ele>
      </trkpt>
      <trkpt lat="45.24237" lon="4.06967">
        <ele>755.2</ele>
      </trkpt>
      <trkpt lat="45.24244" lon="4.0698">
        <ele>754.9</ele>
      </trkpt>
      <trkpt lat="45.24249" lon="4.06991">
        <ele>754.8</ele>
      </trkpt>
      <trkpt lat="45.24253" lon="4.07003">
        <ele>755.4</ele>
      </trkpt>
      <trkpt lat="45.24256" lon="4.07016">
        <ele>755.9</ele>
      </trkpt>
      <trkpt lat="45.24259" lon="4.07031">
        <ele>755.9</ele>
      </trkpt>
      <trkpt lat="45.24265" lon="4.07047">
        <ele>755.2</ele>
      </trkpt>
      <trkpt lat="45.24271" lon="4.07061">
        <ele>754.6</ele>
      </trkpt>
      <trkpt lat="45.24277" lon="4.07073">
        <ele>754.5</ele>
      </trkpt>
      <trkpt lat="45.24283" lon="4.07066">
        <ele>755.6</ele>
      </trkpt>
      <trkpt lat="45.24289" lon="4.0706">
        <ele>756.5</ele>
      </trkpt>
      <trkpt lat="45.24294" lon="4.07059">
        <ele>757</ele>
      </trkpt>
      <trkpt lat="45.24298" lon="4.07059">
        <ele>757.3</ele>
      </trkpt>
      <trkpt lat="45.24301" lon="4.07062">
        <ele>757.6</ele>
      </trkpt>
      <trkpt lat="45.24305" lon="4.07068">
        <ele>757.8</ele>
      </trkpt>
      <trkpt lat="45.24309" lon="4.07078">
        <ele>758.2</ele>
      </trkpt>
      <trkpt lat="45.24313" lon="4.07085">
        <ele>754.8</ele>
      </trkpt>
      <trkpt lat="45.24317" lon="4.07092">
        <ele>755.4</ele>
      </trkpt>
      <trkpt lat="45.24324" lon="4.07098">
        <ele>755.6</ele>
      </trkpt>
      <trkpt lat="45.24329" lon="4.07104">
        <ele>755</ele>
      </trkpt>
      <trkpt lat="45.24334" lon="4.0711">
        <ele>762.3</ele>
      </trkpt>
      <trkpt lat="45.24334" lon="4.07111">
        <ele>762.3</ele>
      </trkpt>
      <trkpt lat="45.24338" lon="4.07118">
        <ele>762.2</ele>
      </trkpt>
      <trkpt lat="45.24342" lon="4.07123">
        <ele>762.1</ele>
      </trkpt>
      <trkpt lat="45.24348" lon="4.0713">
        <ele>762</ele>
      </trkpt>
      <trkpt lat="45.24353" lon="4.07137">
        <ele>761.8</ele>
      </trkpt>
      <trkpt lat="45.24356" lon="4.07145">
        <ele>761.5</ele>
      </trkpt>
      <trkpt lat="45.24359" lon="4.07156">
        <ele>761</ele>
      </trkpt>
      <trkpt lat="45.24362" lon="4.07165">
        <ele>761.2</ele>
      </trkpt>
      <trkpt lat="45.24365" lon="4.07171">
        <ele>755.9</ele>
      </trkpt>
      <trkpt lat="45.2437" lon="4.07192">
        <ele>756.69</ele>
      </trkpt>
      <trkpt lat="45.24381" lon="4.07209">
        <ele>756.21</ele>
      </trkpt>
      <trkpt lat="45.24384" lon="4.07214">
        <ele>755.25</ele>
      </trkpt>
      <trkpt lat="45.24394" lon="4.07228">
        <ele>754.29</ele>
      </trkpt>
      <trkpt lat="45.24402" lon="4.07241">
        <ele>755.25</ele>
      </trkpt>
      <trkpt lat="45.24408" lon="4.07251">
        <ele>756.21</ele>
      </trkpt>
      <trkpt lat="45.24417" lon="4.07261">
        <ele>757.66</ele>
      </trkpt>
      <trkpt lat="45.24427" lon="4.07273">
        <ele>758.14</ele>
      </trkpt>
      <trkpt lat="45.24435" lon="4.07284">
        <ele>759.58</ele>
      </trkpt>
      <trkpt lat="45.24445" lon="4.07293">
        <ele>760.54</ele>
      </trkpt>
      <trkpt lat="45.24455" lon="4.07304">
        <ele>761.02</ele>
      </trkpt>
      <trkpt lat="45.24461" lon="4.07316">
        <ele>761.98</ele>
      </trkpt>
      <trkpt lat="45.24468" lon="4.07327">
        <ele>763.42</ele>
      </trkpt>
      <trkpt lat="45.24479" lon="4.07341">
        <ele>763.9</ele>
      </trkpt>
      <trkpt lat="45.24487" lon="4.07357">
        <ele>764.87</ele>
      </trkpt>
      <trkpt lat="45.24495" lon="4.07371">
        <ele>765.83</ele>
      </trkpt>
      <trkpt lat="45.24502" lon="4.07387">
        <ele>767.27</ele>
      </trkpt>
      <trkpt lat="45.24504" lon="4.07392">
        <ele>767.27</ele>
      </trkpt>
      <trkpt lat="45.24504" lon="4.07397">
        <ele>767.27</ele>
      </trkpt>
      <trkpt lat="45.24508" lon="4.07413">
        <ele>768.23</ele>
      </trkpt>
      <trkpt lat="45.24515" lon="4.07425">
        <ele>769.19</ele>
      </trkpt>
      <trkpt lat="45.24525" lon="4.07438">
        <ele>770.15</ele>
      </trkpt>
      <trkpt lat="45.24533" lon="4.0745">
        <ele>769.19</ele>
      </trkpt>
      <trkpt lat="45.24541" lon="4.07461">
        <ele>767.75</ele>
      </trkpt>
      <trkpt lat="45.24548" lon="4.07475">
        <ele>767.27</ele>
      </trkpt>
      <trkpt lat="45.24552" lon="4.0748">
        <ele>765.35</ele>
      </trkpt>
      <trkpt lat="45.24567" lon="4.07498">
        <ele>764.39</ele>
      </trkpt>
      <trkpt lat="45.2458" lon="4.07518">
        <ele>763.42</ele>
      </trkpt>
      <trkpt lat="45.24586" lon="4.07534">
        <ele>761.5</ele>
      </trkpt>
      <trkpt lat="45.24594" lon="4.07553">
        <ele>761.5</ele>
      </trkpt>
      <trkpt lat="45.24597" lon="4.07558">
        <ele>761.5</ele>
      </trkpt>
      <trkpt lat="45.24606" lon="4.07573">
        <ele>759.58</ele>
      </trkpt>
      <trkpt lat="45.24617" lon="4.07584">
        <ele>756.69</ele>
      </trkpt>
      <trkpt lat="45.24633" lon="4.07598">
        <ele>756.69</ele>
      </trkpt>
      <trkpt lat="45.24642" lon="4.07607">
        <ele>757.66</ele>
      </trkpt>
      <trkpt lat="45.24647" lon="4.07609">
        <ele>758.14</ele>
      </trkpt>
      <trkpt lat="45.24661" lon="4.07623">
        <ele>758.14</ele>
      </trkpt>
      <trkpt lat="45.24669" lon="4.07635">
        <ele>757.66</ele>
      </trkpt>
      <trkpt lat="45.24679" lon="4.07646">
        <ele>757.18</ele>
      </trkpt>
      <trkpt lat="45.2469" lon="4.07657">
        <ele>756.69</ele>
      </trkpt>
      <trkpt lat="45.24704" lon="4.07674">
        <ele>755.73</ele>
      </trkpt>
      <trkpt lat="45.24709" lon="4.07692">
        <ele>755.25</ele>
      </trkpt>
      <trkpt lat="45.24713" lon="4.07705">
        <ele>755.25</ele>
      </trkpt>
      <trkpt lat="45.24714" lon="4.07711">
        <ele>754.77</ele>
      </trkpt>
      <trkpt lat="45.24716" lon="4.07727">
        <ele>752.85</ele>
      </trkpt>
      <trkpt lat="45.24718" lon="4.07744">
        <ele>750.93</ele>
      </trkpt>
      <trkpt lat="45.24721" lon="4.07768">
        <ele>747.08</ele>
      </trkpt>
      <trkpt lat="45.24725" lon="4.07783">
        <ele>744.68</ele>
      </trkpt>
      <trkpt lat="45.24722" lon="4.07799">
        <ele>740.83</ele>
      </trkpt>
      <trkpt lat="45.24716" lon="4.07821">
        <ele>739.39</ele>
      </trkpt>
      <trkpt lat="45.24714" lon="4.07831">
        <ele>738.43</ele>
      </trkpt>
      <trkpt lat="45.24712" lon="4.07846">
        <ele>736.51</ele>
      </trkpt>
      <trkpt lat="45.24712" lon="4.07851">
        <ele>736.03</ele>
      </trkpt>
      <trkpt lat="45.24712" lon="4.07862">
        <ele>735.55</ele>
      </trkpt>
      <trkpt lat="45.24712" lon="4.07862">
        <ele>730.7</ele>
      </trkpt>
      <trkpt lat="45.24714" lon="4.0787">
        <ele>730.4</ele>
      </trkpt>
      <trkpt lat="45.24718" lon="4.07885">
        <ele>730</ele>
      </trkpt>
      <trkpt lat="45.24724" lon="4.07902">
        <ele>729.9</ele>
      </trkpt>
      <trkpt lat="45.24731" lon="4.0792">
        <ele>725.6</ele>
      </trkpt>
      <trkpt lat="45.24739" lon="4.07935">
        <ele>725.2</ele>
      </trkpt>
      <trkpt lat="45.24746" lon="4.07945">
        <ele>724.2</ele>
      </trkpt>
      <trkpt lat="45.24757" lon="4.07954">
        <ele>732.1</ele>
      </trkpt>
      <trkpt lat="45.24775" lon="4.07968">
        <ele>732</ele>
      </trkpt>
      <trkpt lat="45.24796" lon="4.07986">
        <ele>733</ele>
      </trkpt>
      <trkpt lat="45.24801" lon="4.07993">
        <ele>733.2</ele>
      </trkpt>
      <trkpt lat="45.24803" lon="4.07997">
        <ele>733.3</ele>
      </trkpt>
      <trkpt lat="45.24804" lon="4.08041">
        <ele>723.7</ele>
      </trkpt>
      <trkpt lat="45.24806" lon="4.08075">
        <ele>722.3</ele>
      </trkpt>
      <trkpt lat="45.24811" lon="4.08111">
        <ele>714.3</ele>
      </trkpt>
      <trkpt lat="45.24817" lon="4.08149">
        <ele>711.8</ele>
      </trkpt>
      <trkpt lat="45.24823" lon="4.0818">
        <ele>706.4</ele>
      </trkpt>
      <trkpt lat="45.24828" lon="4.08196">
        <ele>704.2</ele>
      </trkpt>
      <trkpt lat="45.24847" lon="4.08262">
        <ele>700.6</ele>
      </trkpt>
      <trkpt lat="45.24858" lon="4.0829">
        <ele>698.9</ele>
      </trkpt>
      <trkpt lat="45.24868" lon="4.08316">
        <ele>697.3</ele>
      </trkpt>
      <trkpt lat="45.24877" lon="4.08343">
        <ele>687.9</ele>
      </trkpt>
      <trkpt lat="45.24883" lon="4.0836">
        <ele>687.2</ele>
      </trkpt>
      <trkpt lat="45.24891" lon="4.08387">
        <ele>685.3</ele>
      </trkpt>
      <trkpt lat="45.24896" lon="4.08405">
        <ele>684.4</ele>
      </trkpt>
      <trkpt lat="45.24902" lon="4.08426">
        <ele>677.2</ele>
      </trkpt>
      <trkpt lat="45.2491" lon="4.08454">
        <ele>673.2</ele>
      </trkpt>
      <trkpt lat="45.24924" lon="4.08489">
        <ele>672.9</ele>
      </trkpt>
      <trkpt lat="45.2493" lon="4.08502">
        <ele>667</ele>
      </trkpt>
      <trkpt lat="45.24933" lon="4.08517">
        <ele>666.1</ele>
      </trkpt>
      <trkpt lat="45.24938" lon="4.08534">
        <ele>664.9</ele>
      </trkpt>
      <trkpt lat="45.24944" lon="4.0855">
        <ele>663.6</ele>
      </trkpt>
      <trkpt lat="45.24948" lon="4.08559">
        <ele>663</ele>
      </trkpt>
      <trkpt lat="45.24954" lon="4.08566">
        <ele>662.8</ele>
      </trkpt>
      <trkpt lat="45.2496" lon="4.08574">
        <ele>662.8</ele>
      </trkpt>
      <trkpt lat="45.24968" lon="4.08592">
        <ele>652.4</ele>
      </trkpt>
      <trkpt lat="45.24976" lon="4.08616">
        <ele>650.2</ele>
      </trkpt>
      <trkpt lat="45.24985" lon="4.08644">
        <ele>646.3</ele>
      </trkpt>
      <trkpt lat="45.24992" lon="4.0866">
        <ele>643.4</ele>
      </trkpt>
      <trkpt lat="45.25002" lon="4.08676">
        <ele>637.5</ele>
      </trkpt>
      <trkpt lat="45.25011" lon="4.0869">
        <ele>633.6</ele>
      </trkpt>
      <trkpt lat="45.25016" lon="4.08695">
        <ele>632.4</ele>
      </trkpt>
      <trkpt lat="45.25017" lon="4.08699">
        <ele>631.8</ele>
      </trkpt>
      <trkpt lat="45.25018" lon="4.08703">
        <ele>631.2</ele>
      </trkpt>
      <trkpt lat="45.25023" lon="4.08703">
        <ele>631</ele>
      </trkpt>
      <trkpt lat="45.25034" lon="4.08704">
        <ele>630.5</ele>
      </trkpt>
      <trkpt lat="45.25044" lon="4.08707">
        <ele>629.8</ele>
      </trkpt>
      <trkpt lat="45.25054" lon="4.08711">
        <ele>629.1</ele>
      </trkpt>
      <trkpt lat="45.25068" lon="4.08717">
        <ele>627.8</ele>
      </trkpt>
      <trkpt lat="45.25079" lon="4.08722">
        <ele>626.4</ele>
      </trkpt>
      <trkpt lat="45.25089" lon="4.08728">
        <ele>625.7</ele>
      </trkpt>
      <trkpt lat="45.25098" lon="4.08737">
        <ele>624.9</ele>
      </trkpt>
      <trkpt lat="45.25105" lon="4.08747">
        <ele>625.1</ele>
      </trkpt>
      <trkpt lat="45.25114" lon="4.08764">
        <ele>620.1</ele>
      </trkpt>
      <trkpt lat="45.25118" lon="4.08774">
        <ele>620.1</ele>
      </trkpt>
      <trkpt lat="45.25119" lon="4.08786">
        <ele>619.8</ele>
      </trkpt>
      <trkpt lat="45.25119" lon="4.08803">
        <ele>619.2</ele>
      </trkpt>
      <trkpt lat="45.25118" lon="4.0882">
        <ele>618.4</ele>
      </trkpt>
      <trkpt lat="45.25116" lon="4.08837">
        <ele>615</ele>
      </trkpt>
      <trkpt lat="45.25116" lon="4.08872">
        <ele>614.5</ele>
      </trkpt>
      <trkpt lat="45.25116" lon="4.08886">
        <ele>614.1</ele>
      </trkpt>
      <trkpt lat="45.25117" lon="4.08894">
        <ele>613.9</ele>
      </trkpt>
      <trkpt lat="45.25121" lon="4.08908">
        <ele>613.9</ele>
      </trkpt>
      <trkpt lat="45.25127" lon="4.08927">
        <ele>612</ele>
      </trkpt>
      <trkpt lat="45.25133" lon="4.08951">
        <ele>611.9</ele>
      </trkpt>
      <trkpt lat="45.25138" lon="4.0897">
        <ele>611.8</ele>
      </trkpt>
      <trkpt lat="45.25139" lon="4.08977">
        <ele>611.7</ele>
      </trkpt>
      <trkpt lat="45.25138" lon="4.08984">
        <ele>611.7</ele>
      </trkpt>
      <trkpt lat="45.25135" lon="4.08996">
        <ele>611.4</ele>
      </trkpt>
      <trkpt lat="45.25132" lon="4.09009">
        <ele>608.7</ele>
      </trkpt>
      <trkpt lat="45.25131" lon="4.09026">
        <ele>606.73</ele>
      </trkpt>
      <trkpt lat="45.25133" lon="4.0904">
        <ele>606.73</ele>
      </trkpt>
      <trkpt lat="45.25136" lon="4.09056">
        <ele>607.21</ele>
      </trkpt>
      <trkpt lat="45.25136" lon="4.09069">
        <ele>607.21</ele>
      </trkpt>
      <trkpt lat="45.25138" lon="4.09091">
        <ele>607.69</ele>
      </trkpt>
      <trkpt lat="45.25138" lon="4.09103">
        <ele>607.21</ele>
      </trkpt>
      <trkpt lat="45.25139" lon="4.09109">
        <ele>606.73</ele>
      </trkpt>
      <trkpt lat="45.25139" lon="4.09115">
        <ele>605.77</ele>
      </trkpt>
      <trkpt lat="45.2514" lon="4.09118">
        <ele>605.77</ele>
      </trkpt>
      <trkpt lat="45.25139" lon="4.09126">
        <ele>606.25</ele>
      </trkpt>
      <trkpt lat="45.25138" lon="4.09136">
        <ele>607.21</ele>
      </trkpt>
      <trkpt lat="45.2514" lon="4.09153">
        <ele>605.29</ele>
      </trkpt>
      <trkpt lat="45.25144" lon="4.09174">
        <ele>602.88</ele>
      </trkpt>
      <trkpt lat="45.25148" lon="4.09188">
        <ele>602.4</ele>
      </trkpt>
      <trkpt lat="45.25148" lon="4.0919">
        <ele>599</ele>
      </trkpt>
      <trkpt lat="45.25151" lon="4.09191">
        <ele>599.4</ele>
      </trkpt>
      <trkpt lat="45.25159" lon="4.09198">
        <ele>599.3</ele>
      </trkpt>
      <trkpt lat="45.25169" lon="4.09205">
        <ele>599.4</ele>
      </trkpt>
      <trkpt lat="45.25181" lon="4.09211">
        <ele>599.2</ele>
      </trkpt>
      <trkpt lat="45.25198" lon="4.09219">
        <ele>599.1</ele>
      </trkpt>
      <trkpt lat="45.25221" lon="4.09227">
        <ele>598.8</ele>
      </trkpt>
      <trkpt lat="45.25229" lon="4.0923">
        <ele>598.6</ele>
      </trkpt>
      <trkpt lat="45.25232" lon="4.09231">
        <ele>598.5</ele>
      </trkpt>
      <trkpt lat="45.25241" lon="4.09234">
        <ele>598.2</ele>
      </trkpt>
      <trkpt lat="45.25261" lon="4.09246">
        <ele>597.3</ele>
      </trkpt>
      <trkpt lat="45.25293" lon="4.09266">
        <ele>594.1</ele>
      </trkpt>
      <trkpt lat="45.25313" lon="4.09281">
        <ele>593.4</ele>
      </trkpt>
      <trkpt lat="45.25329" lon="4.09292">
        <ele>592.9</ele>
      </trkpt>
      <trkpt lat="45.25334" lon="4.09295">
        <ele>590.5</ele>
      </trkpt>
      <trkpt lat="45.2535" lon="4.09307">
        <ele>590.1</ele>
      </trkpt>
      <trkpt lat="45.25357" lon="4.09312">
        <ele>589.9</ele>
      </trkpt>
      <trkpt lat="45.25385" lon="4.09333">
        <ele>588.8</ele>
      </trkpt>
      <trkpt lat="45.25407" lon="4.09353">
        <ele>586.2</ele>
      </trkpt>
      <trkpt lat="45.25428" lon="4.09374">
        <ele>584</ele>
      </trkpt>
      <trkpt lat="45.25444" lon="4.09393">
        <ele>583.6</ele>
      </trkpt>
      <trkpt lat="45.25455" lon="4.09411">
        <ele>583.3</ele>
      </trkpt>
      <trkpt lat="45.25467" lon="4.09434">
        <ele>582.1</ele>
      </trkpt>
      <trkpt lat="45.25479" lon="4.09458">
        <ele>581.8</ele>
      </trkpt>
      <trkpt lat="45.25491" lon="4.09478">
        <ele>581.3</ele>
      </trkpt>
      <trkpt lat="45.25508" lon="4.09498">
        <ele>579.8</ele>
      </trkpt>
      <trkpt lat="45.25513" lon="4.09504">
        <ele>578.6</ele>
      </trkpt>
      <trkpt lat="45.25517" lon="4.09509">
        <ele>578.1</ele>
      </trkpt>
      <trkpt lat="45.25518" lon="4.0951">
        <ele>578</ele>
      </trkpt>
      <trkpt lat="45.25536" lon="4.09529">
        <ele>576.9</ele>
      </trkpt>
      <trkpt lat="45.25558" lon="4.09552">
        <ele>575.9</ele>
      </trkpt>
      <trkpt lat="45.25575" lon="4.09571">
        <ele>574.6</ele>
      </trkpt>
      <trkpt lat="45.25591" lon="4.09593">
        <ele>571.8</ele>
      </trkpt>
      <trkpt lat="45.25608" lon="4.09619">
        <ele>570.3</ele>
      </trkpt>
      <trkpt lat="45.25624" lon="4.09644">
        <ele>569.6</ele>
      </trkpt>
      <trkpt lat="45.25641" lon="4.09671">
        <ele>568</ele>
      </trkpt>
      <trkpt lat="45.25647" lon="4.0968">
        <ele>567.8</ele>
      </trkpt>
      <trkpt lat="45.25658" lon="4.09696">
        <ele>567.6</ele>
      </trkpt>
      <trkpt lat="45.25665" lon="4.09707">
        <ele>567.4</ele>
      </trkpt>
      <trkpt lat="45.25683" lon="4.09734">
        <ele>565</ele>
      </trkpt>
      <trkpt lat="45.25702" lon="4.09757">
        <ele>563.5</ele>
      </trkpt>
      <trkpt lat="45.25714" lon="4.09768">
        <ele>563.2</ele>
      </trkpt>
      <trkpt lat="45.25717" lon="4.09771">
        <ele>563.1</ele>
      </trkpt>
      <trkpt lat="45.25725" lon="4.09776">
        <ele>562.9</ele>
      </trkpt>
      <trkpt lat="45.25746" lon="4.09785">
        <ele>562.6</ele>
      </trkpt>
      <trkpt lat="45.25751" lon="4.0979">
        <ele>560.8</ele>
      </trkpt>
      <trkpt lat="45.25757" lon="4.09801">
        <ele>560.5</ele>
      </trkpt>
      <trkpt lat="45.25762" lon="4.09818">
        <ele>560.2</ele>
      </trkpt>
      <trkpt lat="45.25767" lon="4.09837">
        <ele>559.5</ele>
      </trkpt>
      <trkpt lat="45.25771" lon="4.09846">
        <ele>559.4</ele>
      </trkpt>
      <trkpt lat="45.25776" lon="4.09854">
        <ele>559.3</ele>
      </trkpt>
      <trkpt lat="45.25793" lon="4.09876">
        <ele>559</ele>
      </trkpt>
      <trkpt lat="45.25797" lon="4.0988">
        <ele>558.9</ele>
      </trkpt>
    </trkseg>
  </trk>
</gpx>